<?xml version="1.0" encoding="UTF-8" standalone="no" ?>
<gpx xmlns="http://www.topografix.com/GPX/1/1" xmlns:xsi="http://www.w3.org/2001/XMLSchema-instance" xsi:schemaLocation="http://www.topografix.com/GPX/1/1 http://www.topografix.com/GPX/1/1/gpx.xsd" version="1.1" creator="VisuGPX - https://www.visugpx.com">
  <metadata>
    <name>Campagne Genevoise Est</name>
    <desc><![CDATA[
]]></desc>
  </metadata>
  <trk>
    <name><![CDATA[Campagne Genevoise Est]]></name>
    <trkseg>
      <trkpt lat="46.19416" lon="6.23088">
        <ele>434</ele>
        <time>2018-02-22T17:50:14Z</time>
      </trkpt>
      <trkpt lat="46.19464" lon="6.23254">
        <ele>434</ele>
        <time>2018-02-22T17:50:26Z</time>
      </trkpt>
      <trkpt lat="46.19513" lon="6.23208">
        <ele>434</ele>
        <time>2018-02-22T17:50:41Z</time>
      </trkpt>
      <trkpt lat="46.19583" lon="6.2314">
        <ele>434</ele>
        <time>2018-02-22T17:50:50Z</time>
      </trkpt>
      <trkpt lat="46.19583" lon="6.23141">
        <ele>434</ele>
        <time>2018-02-22T17:51:07Z</time>
      </trkpt>
      <trkpt lat="46.19585" lon="6.23142">
        <ele>434</ele>
        <time>2018-02-22T17:51:11Z</time>
      </trkpt>
      <trkpt lat="46.19587" lon="6.23143">
        <ele>434</ele>
        <time>2018-02-22T17:51:16Z</time>
      </trkpt>
      <trkpt lat="46.19591" lon="6.23143">
        <ele>434</ele>
        <time>2018-02-22T17:51:28Z</time>
      </trkpt>
      <trkpt lat="46.19594" lon="6.2314">
        <ele>434</ele>
        <time>2018-02-22T17:51:35Z</time>
      </trkpt>
      <trkpt lat="46.19596" lon="6.2313">
        <ele>434</ele>
        <time>2018-02-22T17:51:47Z</time>
      </trkpt>
      <trkpt lat="46.19592" lon="6.23124">
        <ele>434</ele>
        <time>2018-02-22T17:51:59Z</time>
      </trkpt>
      <trkpt lat="46.1959" lon="6.23123">
        <ele>434</ele>
        <time>2018-02-22T17:52:11Z</time>
      </trkpt>
      <trkpt lat="46.19573" lon="6.23093">
        <ele>433</ele>
        <time>2018-02-22T17:52:13Z</time>
      </trkpt>
      <trkpt lat="46.19522" lon="6.22985">
        <ele>432</ele>
        <time>2018-02-22T17:52:23Z</time>
      </trkpt>
      <trkpt lat="46.19504" lon="6.22953">
        <ele>432</ele>
        <time>2018-02-22T17:52:26Z</time>
      </trkpt>
      <trkpt lat="46.19481" lon="6.22924">
        <ele>432</ele>
        <time>2018-02-22T17:52:36Z</time>
      </trkpt>
      <trkpt lat="46.19449" lon="6.229">
        <ele>432</ele>
        <time>2018-02-22T17:52:39Z</time>
      </trkpt>
      <trkpt lat="46.19397" lon="6.22869">
        <ele>432</ele>
        <time>2018-02-22T17:52:41Z</time>
      </trkpt>
      <trkpt lat="46.19382" lon="6.22858">
        <ele>432</ele>
        <time>2018-02-22T17:52:59Z</time>
      </trkpt>
      <trkpt lat="46.19373" lon="6.22849">
        <ele>433</ele>
        <time>2018-02-22T17:53:17Z</time>
      </trkpt>
      <trkpt lat="46.19372" lon="6.22846">
        <ele>433</ele>
        <time>2018-02-22T17:53:34Z</time>
      </trkpt>
      <trkpt lat="46.19371" lon="6.22844">
        <ele>433</ele>
        <time>2018-02-22T17:53:52Z</time>
      </trkpt>
      <trkpt lat="46.19382" lon="6.22835">
        <ele>432</ele>
        <time>2018-02-22T17:54:06Z</time>
      </trkpt>
      <trkpt lat="46.19408" lon="6.22817">
        <ele>431</ele>
        <time>2018-02-22T17:54:20Z</time>
      </trkpt>
      <trkpt lat="46.19477" lon="6.22775">
        <ele>431</ele>
        <time>2018-02-22T17:54:36Z</time>
      </trkpt>
      <trkpt lat="46.19502" lon="6.22765">
        <ele>431</ele>
        <time>2018-02-22T17:54:43Z</time>
      </trkpt>
      <trkpt lat="46.19532" lon="6.22757">
        <ele>431</ele>
        <time>2018-02-22T17:54:59Z</time>
      </trkpt>
      <trkpt lat="46.19563" lon="6.22756">
        <ele>431</ele>
        <time>2018-02-22T17:55:01Z</time>
      </trkpt>
      <trkpt lat="46.1958" lon="6.22754">
        <ele>431</ele>
        <time>2018-02-22T17:55:14Z</time>
      </trkpt>
      <trkpt lat="46.19603" lon="6.2276">
        <ele>431</ele>
        <time>2018-02-22T17:55:22Z</time>
      </trkpt>
      <trkpt lat="46.19617" lon="6.22762">
        <ele>431</ele>
        <time>2018-02-22T17:55:36Z</time>
      </trkpt>
      <trkpt lat="46.19664" lon="6.22768">
        <ele>431</ele>
        <time>2018-02-22T17:55:39Z</time>
      </trkpt>
      <trkpt lat="46.19686" lon="6.22761">
        <ele>431</ele>
        <time>2018-02-22T17:55:47Z</time>
      </trkpt>
      <trkpt lat="46.19731" lon="6.22733">
        <ele>431</ele>
        <time>2018-02-22T17:55:59Z</time>
      </trkpt>
      <trkpt lat="46.19732" lon="6.22733">
        <ele>431</ele>
        <time>2018-02-22T17:56:07Z</time>
      </trkpt>
      <trkpt lat="46.19733" lon="6.22734">
        <ele>431</ele>
        <time>2018-02-22T17:56:14Z</time>
      </trkpt>
      <trkpt lat="46.19735" lon="6.22733">
        <ele>431</ele>
        <time>2018-02-22T17:56:16Z</time>
      </trkpt>
      <trkpt lat="46.19738" lon="6.22728">
        <ele>432</ele>
        <time>2018-02-22T17:56:32Z</time>
      </trkpt>
      <trkpt lat="46.1975" lon="6.2272">
        <ele>432</ele>
        <time>2018-02-22T17:56:50Z</time>
      </trkpt>
      <trkpt lat="46.19753" lon="6.22715">
        <ele>432</ele>
        <time>2018-02-22T17:57:00Z</time>
      </trkpt>
      <trkpt lat="46.19766" lon="6.22706">
        <ele>432</ele>
        <time>2018-02-22T17:57:03Z</time>
      </trkpt>
      <trkpt lat="46.19818" lon="6.22672">
        <ele>432</ele>
        <time>2018-02-22T17:57:21Z</time>
      </trkpt>
      <trkpt lat="46.19894" lon="6.22621">
        <ele>432</ele>
        <time>2018-02-22T17:57:31Z</time>
      </trkpt>
      <trkpt lat="46.19929" lon="6.22599">
        <ele>432</ele>
        <time>2018-02-22T17:57:42Z</time>
      </trkpt>
      <trkpt lat="46.19937" lon="6.226">
        <ele>432</ele>
        <time>2018-02-22T17:57:59Z</time>
      </trkpt>
      <trkpt lat="46.19963" lon="6.22583">
        <ele>432</ele>
        <time>2018-02-22T17:58:15Z</time>
      </trkpt>
      <trkpt lat="46.19981" lon="6.2257">
        <ele>431</ele>
        <time>2018-02-22T17:58:24Z</time>
      </trkpt>
      <trkpt lat="46.19988" lon="6.2256">
        <ele>431</ele>
        <time>2018-02-22T17:58:40Z</time>
      </trkpt>
      <trkpt lat="46.20004" lon="6.22549">
        <ele>431</ele>
        <time>2018-02-22T17:58:46Z</time>
      </trkpt>
      <trkpt lat="46.20035" lon="6.22526">
        <ele>431</ele>
        <time>2018-02-22T17:59:03Z</time>
      </trkpt>
      <trkpt lat="46.20087" lon="6.22492">
        <ele>431</ele>
        <time>2018-02-22T17:59:05Z</time>
      </trkpt>
      <trkpt lat="46.20134" lon="6.22453">
        <ele>431</ele>
        <time>2018-02-22T17:59:16Z</time>
      </trkpt>
      <trkpt lat="46.20142" lon="6.22449">
        <ele>431</ele>
        <time>2018-02-22T17:59:33Z</time>
      </trkpt>
      <trkpt lat="46.2017" lon="6.22432">
        <ele>431</ele>
        <time>2018-02-22T17:59:45Z</time>
      </trkpt>
      <trkpt lat="46.20257" lon="6.22362">
        <ele>431</ele>
        <time>2018-02-22T17:59:58Z</time>
      </trkpt>
      <trkpt lat="46.20292" lon="6.22336">
        <ele>431</ele>
        <time>2018-02-22T18:00:06Z</time>
      </trkpt>
      <trkpt lat="46.20325" lon="6.22315">
        <ele>431</ele>
        <time>2018-02-22T18:00:22Z</time>
      </trkpt>
      <trkpt lat="46.20334" lon="6.22306">
        <ele>431</ele>
        <time>2018-02-22T18:00:36Z</time>
      </trkpt>
      <trkpt lat="46.20382" lon="6.22285">
        <ele>430</ele>
        <time>2018-02-22T18:00:40Z</time>
      </trkpt>
      <trkpt lat="46.20385" lon="6.22286">
        <ele>430</ele>
        <time>2018-02-22T18:00:58Z</time>
      </trkpt>
      <trkpt lat="46.2039" lon="6.22286">
        <ele>430</ele>
        <time>2018-02-22T18:01:14Z</time>
      </trkpt>
      <trkpt lat="46.20397" lon="6.22281">
        <ele>430</ele>
        <time>2018-02-22T18:01:24Z</time>
      </trkpt>
      <trkpt lat="46.20399" lon="6.22271">
        <ele>430</ele>
        <time>2018-02-22T18:01:26Z</time>
      </trkpt>
      <trkpt lat="46.20429" lon="6.22239">
        <ele>430</ele>
        <time>2018-02-22T18:01:29Z</time>
      </trkpt>
      <trkpt lat="46.2045" lon="6.22226">
        <ele>430</ele>
        <time>2018-02-22T18:01:48Z</time>
      </trkpt>
      <trkpt lat="46.20502" lon="6.22188">
        <ele>430</ele>
        <time>2018-02-22T18:01:51Z</time>
      </trkpt>
      <trkpt lat="46.20531" lon="6.22155">
        <ele>430</ele>
        <time>2018-02-22T18:02:04Z</time>
      </trkpt>
      <trkpt lat="46.20783" lon="6.21809">
        <ele>430</ele>
        <time>2018-02-22T18:02:12Z</time>
      </trkpt>
      <trkpt lat="46.20822" lon="6.21766">
        <ele>430</ele>
        <time>2018-02-22T18:02:32Z</time>
      </trkpt>
      <trkpt lat="46.20845" lon="6.2175">
        <ele>430</ele>
        <time>2018-02-22T18:02:51Z</time>
      </trkpt>
      <trkpt lat="46.20866" lon="6.21739">
        <ele>430</ele>
        <time>2018-02-22T18:03:07Z</time>
      </trkpt>
      <trkpt lat="46.20905" lon="6.21725">
        <ele>429</ele>
        <time>2018-02-22T18:03:11Z</time>
      </trkpt>
      <trkpt lat="46.20994" lon="6.2171">
        <ele>429</ele>
        <time>2018-02-22T18:03:30Z</time>
      </trkpt>
      <trkpt lat="46.21023" lon="6.21707">
        <ele>430</ele>
        <time>2018-02-22T18:03:37Z</time>
      </trkpt>
      <trkpt lat="46.21174" lon="6.21684">
        <ele>431</ele>
        <time>2018-02-22T18:03:55Z</time>
      </trkpt>
      <trkpt lat="46.21242" lon="6.21672">
        <ele>432</ele>
        <time>2018-02-22T18:04:13Z</time>
      </trkpt>
      <trkpt lat="46.2125" lon="6.21669">
        <ele>432</ele>
        <time>2018-02-22T18:04:21Z</time>
      </trkpt>
      <trkpt lat="46.21254" lon="6.21685">
        <ele>433</ele>
        <time>2018-02-22T18:04:36Z</time>
      </trkpt>
      <trkpt lat="46.21258" lon="6.21698">
        <ele>433</ele>
        <time>2018-02-22T18:04:40Z</time>
      </trkpt>
      <trkpt lat="46.21269" lon="6.21717">
        <ele>433</ele>
        <time>2018-02-22T18:04:44Z</time>
      </trkpt>
      <trkpt lat="46.21324" lon="6.21786">
        <ele>433</ele>
        <time>2018-02-22T18:04:47Z</time>
      </trkpt>
      <trkpt lat="46.21392" lon="6.21868">
        <ele>433</ele>
        <time>2018-02-22T18:04:52Z</time>
      </trkpt>
      <trkpt lat="46.21429" lon="6.21903">
        <ele>433</ele>
        <time>2018-02-22T18:05:12Z</time>
      </trkpt>
      <trkpt lat="46.21462" lon="6.21925">
        <ele>432</ele>
        <time>2018-02-22T18:05:24Z</time>
      </trkpt>
      <trkpt lat="46.21504" lon="6.2195">
        <ele>432</ele>
        <time>2018-02-22T18:05:31Z</time>
      </trkpt>
      <trkpt lat="46.21528" lon="6.2196">
        <ele>431</ele>
        <time>2018-02-22T18:05:51Z</time>
      </trkpt>
      <trkpt lat="46.21553" lon="6.21967">
        <ele>431</ele>
        <time>2018-02-22T18:05:54Z</time>
      </trkpt>
      <trkpt lat="46.21648" lon="6.21957">
        <ele>431</ele>
        <time>2018-02-22T18:06:02Z</time>
      </trkpt>
      <trkpt lat="46.21689" lon="6.21964">
        <ele>430</ele>
        <time>2018-02-22T18:06:06Z</time>
      </trkpt>
      <trkpt lat="46.21736" lon="6.2198">
        <ele>431</ele>
        <time>2018-02-22T18:06:09Z</time>
      </trkpt>
      <trkpt lat="46.21803" lon="6.22005">
        <ele>431</ele>
        <time>2018-02-22T18:06:13Z</time>
      </trkpt>
      <trkpt lat="46.21832" lon="6.2201">
        <ele>431</ele>
        <time>2018-02-22T18:06:31Z</time>
      </trkpt>
      <trkpt lat="46.2184" lon="6.21998">
        <ele>430</ele>
        <time>2018-02-22T18:06:36Z</time>
      </trkpt>
      <trkpt lat="46.21915" lon="6.21905">
        <ele>430</ele>
        <time>2018-02-22T18:06:46Z</time>
      </trkpt>
      <trkpt lat="46.21938" lon="6.21882">
        <ele>430</ele>
        <time>2018-02-22T18:07:02Z</time>
      </trkpt>
      <trkpt lat="46.21968" lon="6.21865">
        <ele>430</ele>
        <time>2018-02-22T18:07:17Z</time>
      </trkpt>
      <trkpt lat="46.22036" lon="6.21825">
        <ele>431</ele>
        <time>2018-02-22T18:07:33Z</time>
      </trkpt>
      <trkpt lat="46.22045" lon="6.21865">
        <ele>431</ele>
        <time>2018-02-22T18:07:41Z</time>
      </trkpt>
      <trkpt lat="46.22056" lon="6.21891">
        <ele>432</ele>
        <time>2018-02-22T18:07:53Z</time>
      </trkpt>
      <trkpt lat="46.22067" lon="6.21907">
        <ele>432</ele>
        <time>2018-02-22T18:07:57Z</time>
      </trkpt>
      <trkpt lat="46.22087" lon="6.21926">
        <ele>433</ele>
        <time>2018-02-22T18:08:10Z</time>
      </trkpt>
      <trkpt lat="46.22134" lon="6.21967">
        <ele>434</ele>
        <time>2018-02-22T18:08:30Z</time>
      </trkpt>
      <trkpt lat="46.2217" lon="6.21993">
        <ele>434</ele>
        <time>2018-02-22T18:08:33Z</time>
      </trkpt>
      <trkpt lat="46.22194" lon="6.22011">
        <ele>434</ele>
        <time>2018-02-22T18:08:37Z</time>
      </trkpt>
      <trkpt lat="46.22206" lon="6.22023">
        <ele>434</ele>
        <time>2018-02-22T18:08:48Z</time>
      </trkpt>
      <trkpt lat="46.2222" lon="6.22049">
        <ele>434</ele>
        <time>2018-02-22T18:09:07Z</time>
      </trkpt>
      <trkpt lat="46.22244" lon="6.2212">
        <ele>433</ele>
        <time>2018-02-22T18:09:19Z</time>
      </trkpt>
      <trkpt lat="46.22278" lon="6.22254">
        <ele>432</ele>
        <time>2018-02-22T18:09:24Z</time>
      </trkpt>
      <trkpt lat="46.22302" lon="6.22334">
        <ele>432</ele>
        <time>2018-02-22T18:09:28Z</time>
      </trkpt>
      <trkpt lat="46.22319" lon="6.22412">
        <ele>432</ele>
        <time>2018-02-22T18:09:32Z</time>
      </trkpt>
      <trkpt lat="46.22326" lon="6.22437">
        <ele>432</ele>
        <time>2018-02-22T18:09:52Z</time>
      </trkpt>
      <trkpt lat="46.22332" lon="6.22443">
        <ele>432</ele>
        <time>2018-02-22T18:09:58Z</time>
      </trkpt>
      <trkpt lat="46.22336" lon="6.2244">
        <ele>432</ele>
        <time>2018-02-22T18:10:07Z</time>
      </trkpt>
      <trkpt lat="46.22332" lon="6.22443">
        <ele>433</ele>
        <time>2018-02-22T18:10:17Z</time>
      </trkpt>
      <trkpt lat="46.22377" lon="6.22485">
        <ele>434</ele>
        <time>2018-02-22T18:10:21Z</time>
      </trkpt>
      <trkpt lat="46.22419" lon="6.22523">
        <ele>437</ele>
        <time>2018-02-22T18:10:26Z</time>
      </trkpt>
      <trkpt lat="46.22487" lon="6.22577">
        <ele>438</ele>
        <time>2018-02-22T18:10:37Z</time>
      </trkpt>
      <trkpt lat="46.22521" lon="6.22607">
        <ele>438</ele>
        <time>2018-02-22T18:10:51Z</time>
      </trkpt>
      <trkpt lat="46.22541" lon="6.2263">
        <ele>437</ele>
        <time>2018-02-22T18:11:09Z</time>
      </trkpt>
      <trkpt lat="46.22588" lon="6.22707">
        <ele>436</ele>
        <time>2018-02-22T18:11:27Z</time>
      </trkpt>
      <trkpt lat="46.22623" lon="6.22758">
        <ele>435</ele>
        <time>2018-02-22T18:11:41Z</time>
      </trkpt>
      <trkpt lat="46.22639" lon="6.2278">
        <ele>436</ele>
        <time>2018-02-22T18:11:46Z</time>
      </trkpt>
      <trkpt lat="46.22659" lon="6.22801">
        <ele>436</ele>
        <time>2018-02-22T18:11:55Z</time>
      </trkpt>
      <trkpt lat="46.22679" lon="6.22815">
        <ele>436</ele>
        <time>2018-02-22T18:12:02Z</time>
      </trkpt>
      <trkpt lat="46.22722" lon="6.22839">
        <ele>437</ele>
        <time>2018-02-22T18:12:11Z</time>
      </trkpt>
      <trkpt lat="46.22746" lon="6.22854">
        <ele>437</ele>
        <time>2018-02-22T18:12:27Z</time>
      </trkpt>
      <trkpt lat="46.22761" lon="6.22867">
        <ele>437</ele>
        <time>2018-02-22T18:12:42Z</time>
      </trkpt>
      <trkpt lat="46.22805" lon="6.22914">
        <ele>437</ele>
        <time>2018-02-22T18:13:00Z</time>
      </trkpt>
      <trkpt lat="46.22892" lon="6.2302">
        <ele>437</ele>
        <time>2018-02-22T18:13:16Z</time>
      </trkpt>
      <trkpt lat="46.22919" lon="6.23045">
        <ele>436</ele>
        <time>2018-02-22T18:13:21Z</time>
      </trkpt>
      <trkpt lat="46.22938" lon="6.23056">
        <ele>436</ele>
        <time>2018-02-22T18:13:32Z</time>
      </trkpt>
      <trkpt lat="46.22947" lon="6.23058">
        <ele>436</ele>
        <time>2018-02-22T18:13:42Z</time>
      </trkpt>
      <trkpt lat="46.22967" lon="6.23063">
        <ele>436</ele>
        <time>2018-02-22T18:14:01Z</time>
      </trkpt>
      <trkpt lat="46.23026" lon="6.2307">
        <ele>436</ele>
        <time>2018-02-22T18:14:21Z</time>
      </trkpt>
      <trkpt lat="46.23075" lon="6.23077">
        <ele>436</ele>
        <time>2018-02-22T18:14:33Z</time>
      </trkpt>
      <trkpt lat="46.23115" lon="6.23077">
        <ele>436</ele>
        <time>2018-02-22T18:14:46Z</time>
      </trkpt>
      <trkpt lat="46.23136" lon="6.23072">
        <ele>436</ele>
        <time>2018-02-22T18:15:04Z</time>
      </trkpt>
      <trkpt lat="46.23157" lon="6.23064">
        <ele>436</ele>
        <time>2018-02-22T18:15:21Z</time>
      </trkpt>
      <trkpt lat="46.23194" lon="6.23048">
        <ele>437</ele>
        <time>2018-02-22T18:15:41Z</time>
      </trkpt>
      <trkpt lat="46.23278" lon="6.23012">
        <ele>437</ele>
        <time>2018-02-22T18:15:47Z</time>
      </trkpt>
      <trkpt lat="46.23426" lon="6.22949">
        <ele>436</ele>
        <time>2018-02-22T18:15:55Z</time>
      </trkpt>
      <trkpt lat="46.2344" lon="6.2294">
        <ele>435</ele>
        <time>2018-02-22T18:16:07Z</time>
      </trkpt>
      <trkpt lat="46.23455" lon="6.22927">
        <ele>435</ele>
        <time>2018-02-22T18:16:11Z</time>
      </trkpt>
      <trkpt lat="46.23474" lon="6.22904">
        <ele>435</ele>
        <time>2018-02-22T18:16:18Z</time>
      </trkpt>
      <trkpt lat="46.23506" lon="6.22855">
        <ele>435</ele>
        <time>2018-02-22T18:16:29Z</time>
      </trkpt>
      <trkpt lat="46.23549" lon="6.22765">
        <ele>434</ele>
        <time>2018-02-22T18:16:43Z</time>
      </trkpt>
      <trkpt lat="46.23565" lon="6.2273">
        <ele>433</ele>
        <time>2018-02-22T18:16:48Z</time>
      </trkpt>
      <trkpt lat="46.23599" lon="6.22754">
        <ele>432</ele>
        <time>2018-02-22T18:16:57Z</time>
      </trkpt>
      <trkpt lat="46.23628" lon="6.22773">
        <ele>431</ele>
        <time>2018-02-22T18:16:59Z</time>
      </trkpt>
      <trkpt lat="46.23652" lon="6.22793">
        <ele>430</ele>
        <time>2018-02-22T18:17:08Z</time>
      </trkpt>
      <trkpt lat="46.23692" lon="6.22835">
        <ele>430</ele>
        <time>2018-02-22T18:17:24Z</time>
      </trkpt>
      <trkpt lat="46.23768" lon="6.22909">
        <ele>430</ele>
        <time>2018-02-22T18:17:39Z</time>
      </trkpt>
      <trkpt lat="46.23813" lon="6.22947">
        <ele>431</ele>
        <time>2018-02-22T18:17:57Z</time>
      </trkpt>
      <trkpt lat="46.23874" lon="6.22992">
        <ele>431</ele>
        <time>2018-02-22T18:17:59Z</time>
      </trkpt>
      <trkpt lat="46.23907" lon="6.23018">
        <ele>432</ele>
        <time>2018-02-22T18:18:07Z</time>
      </trkpt>
      <trkpt lat="46.24087" lon="6.23171">
        <ele>432</ele>
        <time>2018-02-22T18:18:26Z</time>
      </trkpt>
      <trkpt lat="46.24101" lon="6.23184">
        <ele>432</ele>
        <time>2018-02-22T18:18:37Z</time>
      </trkpt>
      <trkpt lat="46.24108" lon="6.23169">
        <ele>432</ele>
        <time>2018-02-22T18:18:51Z</time>
      </trkpt>
      <trkpt lat="46.24169" lon="6.23019">
        <ele>432</ele>
        <time>2018-02-22T18:19:08Z</time>
      </trkpt>
      <trkpt lat="46.2427" lon="6.22771">
        <ele>433</ele>
        <time>2018-02-22T18:19:14Z</time>
      </trkpt>
      <trkpt lat="46.24316" lon="6.22655">
        <ele>434</ele>
        <time>2018-02-22T18:19:33Z</time>
      </trkpt>
      <trkpt lat="46.24332" lon="6.22623">
        <ele>435</ele>
        <time>2018-02-22T18:19:40Z</time>
      </trkpt>
      <trkpt lat="46.24335" lon="6.22623">
        <ele>435</ele>
        <time>2018-02-22T18:19:53Z</time>
      </trkpt>
      <trkpt lat="46.2434" lon="6.22621">
        <ele>435</ele>
        <time>2018-02-22T18:20:11Z</time>
      </trkpt>
      <trkpt lat="46.24354" lon="6.22634">
        <ele>436</ele>
        <time>2018-02-22T18:20:19Z</time>
      </trkpt>
      <trkpt lat="46.24376" lon="6.2267">
        <ele>436</ele>
        <time>2018-02-22T18:20:24Z</time>
      </trkpt>
      <trkpt lat="46.2439" lon="6.22698">
        <ele>436</ele>
        <time>2018-02-22T18:20:38Z</time>
      </trkpt>
      <trkpt lat="46.24404" lon="6.22737">
        <ele>437</ele>
        <time>2018-02-22T18:20:49Z</time>
      </trkpt>
      <trkpt lat="46.24429" lon="6.2283">
        <ele>438</ele>
        <time>2018-02-22T18:20:51Z</time>
      </trkpt>
      <trkpt lat="46.24448" lon="6.22888">
        <ele>439</ele>
        <time>2018-02-22T18:21:09Z</time>
      </trkpt>
      <trkpt lat="46.24458" lon="6.22914">
        <ele>439</ele>
        <time>2018-02-22T18:21:27Z</time>
      </trkpt>
      <trkpt lat="46.24537" lon="6.23056">
        <ele>439</ele>
        <time>2018-02-22T18:21:34Z</time>
      </trkpt>
      <trkpt lat="46.24578" lon="6.23148">
        <ele>439</ele>
        <time>2018-02-22T18:21:47Z</time>
      </trkpt>
      <trkpt lat="46.24588" lon="6.23177">
        <ele>440</ele>
        <time>2018-02-22T18:22:05Z</time>
      </trkpt>
      <trkpt lat="46.24592" lon="6.23201">
        <ele>439</ele>
        <time>2018-02-22T18:22:10Z</time>
      </trkpt>
      <trkpt lat="46.24602" lon="6.23276">
        <ele>438</ele>
        <time>2018-02-22T18:22:29Z</time>
      </trkpt>
      <trkpt lat="46.24613" lon="6.2331">
        <ele>437</ele>
        <time>2018-02-22T18:22:33Z</time>
      </trkpt>
      <trkpt lat="46.24662" lon="6.23398">
        <ele>438</ele>
        <time>2018-02-22T18:22:49Z</time>
      </trkpt>
      <trkpt lat="46.24669" lon="6.23417">
        <ele>438</ele>
        <time>2018-02-22T18:23:03Z</time>
      </trkpt>
      <trkpt lat="46.24676" lon="6.23436">
        <ele>438</ele>
        <time>2018-02-22T18:23:13Z</time>
      </trkpt>
      <trkpt lat="46.24685" lon="6.23424">
        <ele>439</ele>
        <time>2018-02-22T18:23:33Z</time>
      </trkpt>
      <trkpt lat="46.24702" lon="6.23398">
        <ele>440</ele>
        <time>2018-02-22T18:23:38Z</time>
      </trkpt>
      <trkpt lat="46.24748" lon="6.23322">
        <ele>440</ele>
        <time>2018-02-22T18:23:41Z</time>
      </trkpt>
      <trkpt lat="46.24842" lon="6.23164">
        <ele>439</ele>
        <time>2018-02-22T18:24:00Z</time>
      </trkpt>
      <trkpt lat="46.24854" lon="6.2314">
        <ele>438</ele>
        <time>2018-02-22T18:24:02Z</time>
      </trkpt>
      <trkpt lat="46.24863" lon="6.23118">
        <ele>438</ele>
        <time>2018-02-22T18:24:14Z</time>
      </trkpt>
      <trkpt lat="46.24892" lon="6.23058">
        <ele>438</ele>
        <time>2018-02-22T18:24:16Z</time>
      </trkpt>
      <trkpt lat="46.24903" lon="6.23039">
        <ele>438</ele>
        <time>2018-02-22T18:24:23Z</time>
      </trkpt>
      <trkpt lat="46.24923" lon="6.22997">
        <ele>439</ele>
        <time>2018-02-22T18:24:41Z</time>
      </trkpt>
      <trkpt lat="46.24973" lon="6.22892">
        <ele>440</ele>
        <time>2018-02-22T18:24:52Z</time>
      </trkpt>
      <trkpt lat="46.25008" lon="6.22797">
        <ele>440</ele>
        <time>2018-02-22T18:24:56Z</time>
      </trkpt>
      <trkpt lat="46.25027" lon="6.22738">
        <ele>439</ele>
        <time>2018-02-22T18:25:04Z</time>
      </trkpt>
      <trkpt lat="46.25035" lon="6.22718">
        <ele>438</ele>
        <time>2018-02-22T18:25:15Z</time>
      </trkpt>
      <trkpt lat="46.25111" lon="6.22515">
        <ele>437</ele>
        <time>2018-02-22T18:25:30Z</time>
      </trkpt>
      <trkpt lat="46.2513" lon="6.22466">
        <ele>436</ele>
        <time>2018-02-22T18:25:45Z</time>
      </trkpt>
      <trkpt lat="46.25156" lon="6.2241">
        <ele>436</ele>
        <time>2018-02-22T18:26:02Z</time>
      </trkpt>
      <trkpt lat="46.25291" lon="6.22138">
        <ele>436</ele>
        <time>2018-02-22T18:26:04Z</time>
      </trkpt>
      <trkpt lat="46.25106" lon="6.21992">
        <ele>437</ele>
        <time>2018-02-22T18:26:22Z</time>
      </trkpt>
      <trkpt lat="46.25099" lon="6.21985">
        <ele>437</ele>
        <time>2018-02-22T18:26:28Z</time>
      </trkpt>
      <trkpt lat="46.25133" lon="6.2193">
        <ele>436</ele>
        <time>2018-02-22T18:26:41Z</time>
      </trkpt>
      <trkpt lat="46.25198" lon="6.21826">
        <ele>435</ele>
        <time>2018-02-22T18:26:52Z</time>
      </trkpt>
      <trkpt lat="46.2523" lon="6.21779">
        <ele>434</ele>
        <time>2018-02-22T18:27:07Z</time>
      </trkpt>
      <trkpt lat="46.25245" lon="6.21761">
        <ele>434</ele>
        <time>2018-02-22T18:27:26Z</time>
      </trkpt>
      <trkpt lat="46.25269" lon="6.21736">
        <ele>435</ele>
        <time>2018-02-22T18:27:34Z</time>
      </trkpt>
      <trkpt lat="46.25325" lon="6.21673">
        <ele>436</ele>
        <time>2018-02-22T18:27:41Z</time>
      </trkpt>
      <trkpt lat="46.25339" lon="6.21654">
        <ele>436</ele>
        <time>2018-02-22T18:27:51Z</time>
      </trkpt>
      <trkpt lat="46.25345" lon="6.21641">
        <ele>436</ele>
        <time>2018-02-22T18:27:57Z</time>
      </trkpt>
      <trkpt lat="46.25347" lon="6.21614">
        <ele>435</ele>
        <time>2018-02-22T18:28:00Z</time>
      </trkpt>
      <trkpt lat="46.25357" lon="6.21588">
        <ele>434</ele>
        <time>2018-02-22T18:28:11Z</time>
      </trkpt>
      <trkpt lat="46.25372" lon="6.21563">
        <ele>432</ele>
        <time>2018-02-22T18:28:21Z</time>
      </trkpt>
      <trkpt lat="46.25395" lon="6.2154">
        <ele>430</ele>
        <time>2018-02-22T18:28:33Z</time>
      </trkpt>
      <trkpt lat="46.25425" lon="6.21512">
        <ele>428</ele>
        <time>2018-02-22T18:28:35Z</time>
      </trkpt>
      <trkpt lat="46.25434" lon="6.21463">
        <ele>426</ele>
        <time>2018-02-22T18:28:52Z</time>
      </trkpt>
      <trkpt lat="46.25436" lon="6.21437">
        <ele>425</ele>
        <time>2018-02-22T18:28:58Z</time>
      </trkpt>
      <trkpt lat="46.25455" lon="6.21369">
        <ele>423</ele>
        <time>2018-02-22T18:29:11Z</time>
      </trkpt>
      <trkpt lat="46.25476" lon="6.21288">
        <ele>419</ele>
        <time>2018-02-22T18:29:13Z</time>
      </trkpt>
      <trkpt lat="46.25502" lon="6.21198">
        <ele>415</ele>
        <time>2018-02-22T18:29:17Z</time>
      </trkpt>
      <trkpt lat="46.25533" lon="6.211">
        <ele>412</ele>
        <time>2018-02-22T18:29:28Z</time>
      </trkpt>
      <trkpt lat="46.25547" lon="6.2107">
        <ele>410</ele>
        <time>2018-02-22T18:29:36Z</time>
      </trkpt>
      <trkpt lat="46.25563" lon="6.21036">
        <ele>409</ele>
        <time>2018-02-22T18:29:56Z</time>
      </trkpt>
      <trkpt lat="46.25612" lon="6.20932">
        <ele>407</ele>
        <time>2018-02-22T18:30:00Z</time>
      </trkpt>
      <trkpt lat="46.25629" lon="6.2087">
        <ele>406</ele>
        <time>2018-02-22T18:30:13Z</time>
      </trkpt>
      <trkpt lat="46.25645" lon="6.208">
        <ele>406</ele>
        <time>2018-02-22T18:30:15Z</time>
      </trkpt>
      <trkpt lat="46.25651" lon="6.20777">
        <ele>406</ele>
        <time>2018-02-22T18:30:34Z</time>
      </trkpt>
      <trkpt lat="46.25661" lon="6.20754">
        <ele>406</ele>
        <time>2018-02-22T18:30:44Z</time>
      </trkpt>
      <trkpt lat="46.25675" lon="6.20773">
        <ele>406</ele>
        <time>2018-02-22T18:30:59Z</time>
      </trkpt>
      <trkpt lat="46.25706" lon="6.20809">
        <ele>406</ele>
        <time>2018-02-22T18:31:04Z</time>
      </trkpt>
      <trkpt lat="46.25759" lon="6.2087">
        <ele>405</ele>
        <time>2018-02-22T18:31:11Z</time>
      </trkpt>
      <trkpt lat="46.2582" lon="6.20947">
        <ele>404</ele>
        <time>2018-02-22T18:31:22Z</time>
      </trkpt>
      <trkpt lat="46.25844" lon="6.20988">
        <ele>403</ele>
        <time>2018-02-22T18:31:32Z</time>
      </trkpt>
      <trkpt lat="46.25864" lon="6.21041">
        <ele>403</ele>
        <time>2018-02-22T18:31:48Z</time>
      </trkpt>
      <trkpt lat="46.25881" lon="6.21102">
        <ele>403</ele>
        <time>2018-02-22T18:31:59Z</time>
      </trkpt>
      <trkpt lat="46.25898" lon="6.21152">
        <ele>402</ele>
        <time>2018-02-22T18:32:03Z</time>
      </trkpt>
      <trkpt lat="46.25904" lon="6.21164">
        <ele>402</ele>
        <time>2018-02-22T18:32:08Z</time>
      </trkpt>
      <trkpt lat="46.25915" lon="6.21185">
        <ele>402</ele>
        <time>2018-02-22T18:32:25Z</time>
      </trkpt>
      <trkpt lat="46.25926" lon="6.21201">
        <ele>401</ele>
        <time>2018-02-22T18:32:34Z</time>
      </trkpt>
      <trkpt lat="46.25939" lon="6.21215">
        <ele>401</ele>
        <time>2018-02-22T18:32:40Z</time>
      </trkpt>
      <trkpt lat="46.25952" lon="6.21226">
        <ele>401</ele>
        <time>2018-02-22T18:32:42Z</time>
      </trkpt>
      <trkpt lat="46.25974" lon="6.21239">
        <ele>401</ele>
        <time>2018-02-22T18:32:56Z</time>
      </trkpt>
      <trkpt lat="46.26017" lon="6.21252">
        <ele>400</ele>
        <time>2018-02-22T18:33:09Z</time>
      </trkpt>
      <trkpt lat="46.26091" lon="6.21273">
        <ele>400</ele>
        <time>2018-02-22T18:33:18Z</time>
      </trkpt>
      <trkpt lat="46.26122" lon="6.21283">
        <ele>399</ele>
        <time>2018-02-22T18:33:26Z</time>
      </trkpt>
      <trkpt lat="46.26176" lon="6.21305">
        <ele>398</ele>
        <time>2018-02-22T18:33:39Z</time>
      </trkpt>
      <trkpt lat="46.26249" lon="6.21336">
        <ele>397</ele>
        <time>2018-02-22T18:33:46Z</time>
      </trkpt>
      <trkpt lat="46.26316" lon="6.21369">
        <ele>397</ele>
        <time>2018-02-22T18:33:49Z</time>
      </trkpt>
      <trkpt lat="46.2639" lon="6.21409">
        <ele>397</ele>
        <time>2018-02-22T18:33:59Z</time>
      </trkpt>
      <trkpt lat="46.26423" lon="6.21434">
        <ele>396</ele>
        <time>2018-02-22T18:34:09Z</time>
      </trkpt>
      <trkpt lat="46.26449" lon="6.21458">
        <ele>395</ele>
        <time>2018-02-22T18:34:13Z</time>
      </trkpt>
      <trkpt lat="46.26525" lon="6.21539">
        <ele>395</ele>
        <time>2018-02-22T18:34:31Z</time>
      </trkpt>
      <trkpt lat="46.26583" lon="6.21591">
        <ele>394</ele>
        <time>2018-02-22T18:34:42Z</time>
      </trkpt>
      <trkpt lat="46.26635" lon="6.21633">
        <ele>393</ele>
        <time>2018-02-22T18:35:01Z</time>
      </trkpt>
      <trkpt lat="46.26695" lon="6.21679">
        <ele>393</ele>
        <time>2018-02-22T18:35:17Z</time>
      </trkpt>
      <trkpt lat="46.26733" lon="6.21703">
        <ele>391</ele>
        <time>2018-02-22T18:35:22Z</time>
      </trkpt>
      <trkpt lat="46.26853" lon="6.21762">
        <ele>391</ele>
        <time>2018-02-22T18:35:42Z</time>
      </trkpt>
      <trkpt lat="46.26959" lon="6.21813">
        <ele>390</ele>
        <time>2018-02-22T18:35:59Z</time>
      </trkpt>
      <trkpt lat="46.26998" lon="6.21836">
        <ele>390</ele>
        <time>2018-02-22T18:36:01Z</time>
      </trkpt>
      <trkpt lat="46.27032" lon="6.21865">
        <ele>390</ele>
        <time>2018-02-22T18:36:14Z</time>
      </trkpt>
      <trkpt lat="46.27112" lon="6.21933">
        <ele>392</ele>
        <time>2018-02-22T18:36:16Z</time>
      </trkpt>
      <trkpt lat="46.2723" lon="6.22032">
        <ele>394</ele>
        <time>2018-02-22T18:36:18Z</time>
      </trkpt>
      <trkpt lat="46.27248" lon="6.22046">
        <ele>396</ele>
        <time>2018-02-22T18:36:33Z</time>
      </trkpt>
      <trkpt lat="46.27263" lon="6.22053">
        <ele>396</ele>
        <time>2018-02-22T18:36:45Z</time>
      </trkpt>
      <trkpt lat="46.273" lon="6.22067">
        <ele>396</ele>
        <time>2018-02-22T18:36:48Z</time>
      </trkpt>
      <trkpt lat="46.27324" lon="6.22078">
        <ele>395</ele>
        <time>2018-02-22T18:36:52Z</time>
      </trkpt>
      <trkpt lat="46.2735" lon="6.22095">
        <ele>396</ele>
        <time>2018-02-22T18:37:11Z</time>
      </trkpt>
      <trkpt lat="46.27407" lon="6.22142">
        <ele>397</ele>
        <time>2018-02-22T18:37:23Z</time>
      </trkpt>
      <trkpt lat="46.27458" lon="6.22173">
        <ele>399</ele>
        <time>2018-02-22T18:37:25Z</time>
      </trkpt>
      <trkpt lat="46.27537" lon="6.22213">
        <ele>400</ele>
        <time>2018-02-22T18:37:30Z</time>
      </trkpt>
      <trkpt lat="46.27591" lon="6.22241">
        <ele>402</ele>
        <time>2018-02-22T18:37:38Z</time>
      </trkpt>
      <trkpt lat="46.27622" lon="6.22261">
        <ele>403</ele>
        <time>2018-02-22T18:37:41Z</time>
      </trkpt>
      <trkpt lat="46.27638" lon="6.22272">
        <ele>404</ele>
        <time>2018-02-22T18:37:46Z</time>
      </trkpt>
      <trkpt lat="46.27651" lon="6.22285">
        <ele>404</ele>
        <time>2018-02-22T18:37:51Z</time>
      </trkpt>
      <trkpt lat="46.27671" lon="6.22303">
        <ele>403</ele>
        <time>2018-02-22T18:37:54Z</time>
      </trkpt>
      <trkpt lat="46.27739" lon="6.22366">
        <ele>403</ele>
        <time>2018-02-22T18:38:09Z</time>
      </trkpt>
      <trkpt lat="46.27796" lon="6.22423">
        <ele>402</ele>
        <time>2018-02-22T18:38:21Z</time>
      </trkpt>
      <trkpt lat="46.27855" lon="6.22482">
        <ele>400</ele>
        <time>2018-02-22T18:38:37Z</time>
      </trkpt>
      <trkpt lat="46.27951" lon="6.22587">
        <ele>398</ele>
        <time>2018-02-22T18:38:53Z</time>
      </trkpt>
      <trkpt lat="46.28011" lon="6.22655">
        <ele>397</ele>
        <time>2018-02-22T18:39:08Z</time>
      </trkpt>
      <trkpt lat="46.28074" lon="6.22711">
        <ele>396</ele>
        <time>2018-02-22T18:39:17Z</time>
      </trkpt>
      <trkpt lat="46.28201" lon="6.22829">
        <ele>394</ele>
        <time>2018-02-22T18:39:34Z</time>
      </trkpt>
      <trkpt lat="46.28283" lon="6.22897">
        <ele>393</ele>
        <time>2018-02-22T18:39:38Z</time>
      </trkpt>
      <trkpt lat="46.28345" lon="6.22951">
        <ele>394</ele>
        <time>2018-02-22T18:39:58Z</time>
      </trkpt>
      <trkpt lat="46.28413" lon="6.23007">
        <ele>394</ele>
        <time>2018-02-22T18:40:10Z</time>
      </trkpt>
      <trkpt lat="46.28472" lon="6.23062">
        <ele>395</ele>
        <time>2018-02-22T18:40:19Z</time>
      </trkpt>
      <trkpt lat="46.28489" lon="6.2308">
        <ele>397</ele>
        <time>2018-02-22T18:40:25Z</time>
      </trkpt>
      <trkpt lat="46.28524" lon="6.23126">
        <ele>397</ele>
        <time>2018-02-22T18:40:31Z</time>
      </trkpt>
      <trkpt lat="46.28554" lon="6.23185">
        <ele>397</ele>
        <time>2018-02-22T18:40:46Z</time>
      </trkpt>
      <trkpt lat="46.28576" lon="6.23234">
        <ele>396</ele>
        <time>2018-02-22T18:41:05Z</time>
      </trkpt>
      <trkpt lat="46.28621" lon="6.23326">
        <ele>396</ele>
        <time>2018-02-22T18:41:10Z</time>
      </trkpt>
      <trkpt lat="46.28664" lon="6.2341">
        <ele>396</ele>
        <time>2018-02-22T18:41:16Z</time>
      </trkpt>
      <trkpt lat="46.28744" lon="6.23536">
        <ele>396</ele>
        <time>2018-02-22T18:41:27Z</time>
      </trkpt>
      <trkpt lat="46.28785" lon="6.23596">
        <ele>396</ele>
        <time>2018-02-22T18:41:40Z</time>
      </trkpt>
      <trkpt lat="46.28834" lon="6.23652">
        <ele>395</ele>
        <time>2018-02-22T18:41:46Z</time>
      </trkpt>
      <trkpt lat="46.28897" lon="6.23713">
        <ele>396</ele>
        <time>2018-02-22T18:41:56Z</time>
      </trkpt>
      <trkpt lat="46.28931" lon="6.23743">
        <ele>396</ele>
        <time>2018-02-22T18:42:16Z</time>
      </trkpt>
      <trkpt lat="46.29111" lon="6.23912">
        <ele>398</ele>
        <time>2018-02-22T18:42:32Z</time>
      </trkpt>
      <trkpt lat="46.29227" lon="6.2402">
        <ele>398</ele>
        <time>2018-02-22T18:42:39Z</time>
      </trkpt>
      <trkpt lat="46.29301" lon="6.241">
        <ele>398</ele>
        <time>2018-02-22T18:42:55Z</time>
      </trkpt>
      <trkpt lat="46.29357" lon="6.24167">
        <ele>398</ele>
        <time>2018-02-22T18:43:01Z</time>
      </trkpt>
      <trkpt lat="46.29402" lon="6.2421">
        <ele>397</ele>
        <time>2018-02-22T18:43:10Z</time>
      </trkpt>
      <trkpt lat="46.29438" lon="6.24237">
        <ele>397</ele>
        <time>2018-02-22T18:43:12Z</time>
      </trkpt>
      <trkpt lat="46.29472" lon="6.24258">
        <ele>396</ele>
        <time>2018-02-22T18:43:19Z</time>
      </trkpt>
      <trkpt lat="46.29512" lon="6.24278">
        <ele>396</ele>
        <time>2018-02-22T18:43:21Z</time>
      </trkpt>
      <trkpt lat="46.29545" lon="6.2429">
        <ele>395</ele>
        <time>2018-02-22T18:43:33Z</time>
      </trkpt>
      <trkpt lat="46.29622" lon="6.24318">
        <ele>393</ele>
        <time>2018-02-22T18:43:53Z</time>
      </trkpt>
      <trkpt lat="46.29687" lon="6.24339">
        <ele>391</ele>
        <time>2018-02-22T18:44:01Z</time>
      </trkpt>
      <trkpt lat="46.29734" lon="6.24358">
        <ele>389</ele>
        <time>2018-02-22T18:44:03Z</time>
      </trkpt>
      <trkpt lat="46.29786" lon="6.24374">
        <ele>387</ele>
        <time>2018-02-22T18:44:09Z</time>
      </trkpt>
      <trkpt lat="46.29901" lon="6.24407">
        <ele>384</ele>
        <time>2018-02-22T18:44:28Z</time>
      </trkpt>
      <trkpt lat="46.29989" lon="6.24399">
        <ele>382</ele>
        <time>2018-02-22T18:44:46Z</time>
      </trkpt>
      <trkpt lat="46.3006" lon="6.24391">
        <ele>381</ele>
        <time>2018-02-22T18:45:01Z</time>
      </trkpt>
      <trkpt lat="46.30096" lon="6.24379">
        <ele>380</ele>
        <time>2018-02-22T18:45:03Z</time>
      </trkpt>
      <trkpt lat="46.30106" lon="6.24377">
        <ele>379</ele>
        <time>2018-02-22T18:45:20Z</time>
      </trkpt>
      <trkpt lat="46.30115" lon="6.24379">
        <ele>379</ele>
        <time>2018-02-22T18:45:22Z</time>
      </trkpt>
      <trkpt lat="46.30164" lon="6.24411">
        <ele>379</ele>
        <time>2018-02-22T18:45:30Z</time>
      </trkpt>
      <trkpt lat="46.30186" lon="6.24427">
        <ele>379</ele>
        <time>2018-02-22T18:45:33Z</time>
      </trkpt>
      <trkpt lat="46.30202" lon="6.24433">
        <ele>379</ele>
        <time>2018-02-22T18:45:35Z</time>
      </trkpt>
      <trkpt lat="46.30224" lon="6.2444">
        <ele>379</ele>
        <time>2018-02-22T18:45:37Z</time>
      </trkpt>
      <trkpt lat="46.30235" lon="6.2445">
        <ele>378</ele>
        <time>2018-02-22T18:45:41Z</time>
      </trkpt>
      <trkpt lat="46.30241" lon="6.24458">
        <ele>378</ele>
        <time>2018-02-22T18:45:57Z</time>
      </trkpt>
      <trkpt lat="46.30244" lon="6.24474">
        <ele>378</ele>
        <time>2018-02-22T18:46:00Z</time>
      </trkpt>
      <trkpt lat="46.30249" lon="6.24504">
        <ele>380</ele>
        <time>2018-02-22T18:46:17Z</time>
      </trkpt>
      <trkpt lat="46.30249" lon="6.2455">
        <ele>381</ele>
        <time>2018-02-22T18:46:29Z</time>
      </trkpt>
      <trkpt lat="46.30255" lon="6.24622">
        <ele>381</ele>
        <time>2018-02-22T18:46:47Z</time>
      </trkpt>
      <trkpt lat="46.30248" lon="6.24725">
        <ele>380</ele>
        <time>2018-02-22T18:47:03Z</time>
      </trkpt>
      <trkpt lat="46.30261" lon="6.24746">
        <ele>379</ele>
        <time>2018-02-22T18:47:13Z</time>
      </trkpt>
      <trkpt lat="46.30273" lon="6.24752">
        <ele>380</ele>
        <time>2018-02-22T18:47:15Z</time>
      </trkpt>
      <trkpt lat="46.30296" lon="6.24767">
        <ele>382</ele>
        <time>2018-02-22T18:47:33Z</time>
      </trkpt>
      <trkpt lat="46.30346" lon="6.24805">
        <ele>385</ele>
        <time>2018-02-22T18:47:43Z</time>
      </trkpt>
      <trkpt lat="46.30395" lon="6.24845">
        <ele>389</ele>
        <time>2018-02-22T18:47:45Z</time>
      </trkpt>
      <trkpt lat="46.30503" lon="6.2492">
        <ele>392</ele>
        <time>2018-02-22T18:47:58Z</time>
      </trkpt>
      <trkpt lat="46.30525" lon="6.24941">
        <ele>396</ele>
        <time>2018-02-22T18:48:16Z</time>
      </trkpt>
      <trkpt lat="46.30546" lon="6.24967">
        <ele>397</ele>
        <time>2018-02-22T18:48:31Z</time>
      </trkpt>
      <trkpt lat="46.30583" lon="6.2504">
        <ele>399</ele>
        <time>2018-02-22T18:48:46Z</time>
      </trkpt>
      <trkpt lat="46.30632" lon="6.25144">
        <ele>401</ele>
        <time>2018-02-22T18:48:50Z</time>
      </trkpt>
      <trkpt lat="46.30637" lon="6.2516">
        <ele>401</ele>
        <time>2018-02-22T18:48:54Z</time>
      </trkpt>
      <trkpt lat="46.30642" lon="6.25186">
        <ele>402</ele>
        <time>2018-02-22T18:49:09Z</time>
      </trkpt>
      <trkpt lat="46.30642" lon="6.25223">
        <ele>403</ele>
        <time>2018-02-22T18:49:16Z</time>
      </trkpt>
      <trkpt lat="46.30631" lon="6.25273">
        <ele>404</ele>
        <time>2018-02-22T18:49:26Z</time>
      </trkpt>
      <trkpt lat="46.30618" lon="6.25314">
        <ele>406</ele>
        <time>2018-02-22T18:49:29Z</time>
      </trkpt>
      <trkpt lat="46.30609" lon="6.2535">
        <ele>408</ele>
        <time>2018-02-22T18:49:35Z</time>
      </trkpt>
      <trkpt lat="46.30607" lon="6.25388">
        <ele>409</ele>
        <time>2018-02-22T18:49:45Z</time>
      </trkpt>
      <trkpt lat="46.30612" lon="6.25421">
        <ele>411</ele>
        <time>2018-02-22T18:50:05Z</time>
      </trkpt>
      <trkpt lat="46.30629" lon="6.25476">
        <ele>411</ele>
        <time>2018-02-22T18:50:25Z</time>
      </trkpt>
      <trkpt lat="46.30658" lon="6.25559">
        <ele>412</ele>
        <time>2018-02-22T18:50:32Z</time>
      </trkpt>
      <trkpt lat="46.30674" lon="6.25591">
        <ele>413</ele>
        <time>2018-02-22T18:50:43Z</time>
      </trkpt>
      <trkpt lat="46.30682" lon="6.25603">
        <ele>414</ele>
        <time>2018-02-22T18:51:03Z</time>
      </trkpt>
      <trkpt lat="46.30702" lon="6.25626">
        <ele>415</ele>
        <time>2018-02-22T18:51:06Z</time>
      </trkpt>
      <trkpt lat="46.30738" lon="6.25656">
        <ele>417</ele>
        <time>2018-02-22T18:51:20Z</time>
      </trkpt>
      <trkpt lat="46.30776" lon="6.25687">
        <ele>418</ele>
        <time>2018-02-22T18:51:35Z</time>
      </trkpt>
      <trkpt lat="46.30799" lon="6.25704">
        <ele>419</ele>
        <time>2018-02-22T18:51:40Z</time>
      </trkpt>
      <trkpt lat="46.30815" lon="6.25722">
        <ele>419</ele>
        <time>2018-02-22T18:51:55Z</time>
      </trkpt>
      <trkpt lat="46.30845" lon="6.25767">
        <ele>419</ele>
        <time>2018-02-22T18:52:09Z</time>
      </trkpt>
      <trkpt lat="46.30868" lon="6.25809">
        <ele>419</ele>
        <time>2018-02-22T18:52:29Z</time>
      </trkpt>
      <trkpt lat="46.30938" lon="6.2592">
        <ele>420</ele>
        <time>2018-02-22T18:52:34Z</time>
      </trkpt>
      <trkpt lat="46.30986" lon="6.25994">
        <ele>420</ele>
        <time>2018-02-22T18:52:42Z</time>
      </trkpt>
      <trkpt lat="46.31029" lon="6.26052">
        <ele>420</ele>
        <time>2018-02-22T18:52:48Z</time>
      </trkpt>
      <trkpt lat="46.31095" lon="6.26131">
        <ele>420</ele>
        <time>2018-02-22T18:53:06Z</time>
      </trkpt>
      <trkpt lat="46.31156" lon="6.26192">
        <ele>420</ele>
        <time>2018-02-22T18:53:19Z</time>
      </trkpt>
      <trkpt lat="46.313" lon="6.26345">
        <ele>421</ele>
        <time>2018-02-22T18:53:33Z</time>
      </trkpt>
      <trkpt lat="46.31476" lon="6.26529">
        <ele>422</ele>
        <time>2018-02-22T18:53:35Z</time>
      </trkpt>
      <trkpt lat="46.31519" lon="6.26575">
        <ele>422</ele>
        <time>2018-02-22T18:53:50Z</time>
      </trkpt>
      <trkpt lat="46.31537" lon="6.26599">
        <ele>422</ele>
        <time>2018-02-22T18:53:52Z</time>
      </trkpt>
      <trkpt lat="46.31553" lon="6.26626">
        <ele>421</ele>
        <time>2018-02-22T18:54:01Z</time>
      </trkpt>
      <trkpt lat="46.31573" lon="6.26654">
        <ele>421</ele>
        <time>2018-02-22T18:54:15Z</time>
      </trkpt>
      <trkpt lat="46.31586" lon="6.26669">
        <ele>420</ele>
        <time>2018-02-22T18:54:26Z</time>
      </trkpt>
      <trkpt lat="46.31591" lon="6.26682">
        <ele>420</ele>
        <time>2018-02-22T18:54:44Z</time>
      </trkpt>
      <trkpt lat="46.316" lon="6.26697">
        <ele>419</ele>
        <time>2018-02-22T18:54:53Z</time>
      </trkpt>
      <trkpt lat="46.31624" lon="6.26673">
        <ele>418</ele>
        <time>2018-02-22T18:55:12Z</time>
      </trkpt>
      <trkpt lat="46.31637" lon="6.26663">
        <ele>418</ele>
        <time>2018-02-22T18:55:31Z</time>
      </trkpt>
      <trkpt lat="46.31652" lon="6.26658">
        <ele>417</ele>
        <time>2018-02-22T18:55:35Z</time>
      </trkpt>
      <trkpt lat="46.31661" lon="6.26658">
        <ele>416</ele>
        <time>2018-02-22T18:55:44Z</time>
      </trkpt>
      <trkpt lat="46.31674" lon="6.26664">
        <ele>415</ele>
        <time>2018-02-22T18:55:53Z</time>
      </trkpt>
      <trkpt lat="46.31675" lon="6.26667">
        <ele>414</ele>
        <time>2018-02-22T18:56:08Z</time>
      </trkpt>
      <trkpt lat="46.31678" lon="6.26672">
        <ele>414</ele>
        <time>2018-02-22T18:56:24Z</time>
      </trkpt>
      <trkpt lat="46.31683" lon="6.26674">
        <ele>413</ele>
        <time>2018-02-22T18:56:35Z</time>
      </trkpt>
      <trkpt lat="46.31688" lon="6.26673">
        <ele>413</ele>
        <time>2018-02-22T18:56:45Z</time>
      </trkpt>
      <trkpt lat="46.31692" lon="6.2667">
        <ele>413</ele>
        <time>2018-02-22T18:56:52Z</time>
      </trkpt>
      <trkpt lat="46.31696" lon="6.26658">
        <ele>413</ele>
        <time>2018-02-22T18:57:01Z</time>
      </trkpt>
      <trkpt lat="46.31696" lon="6.26652">
        <ele>414</ele>
        <time>2018-02-22T18:57:04Z</time>
      </trkpt>
      <trkpt lat="46.31696" lon="6.2665">
        <ele>414</ele>
        <time>2018-02-22T18:57:13Z</time>
      </trkpt>
      <trkpt lat="46.31695" lon="6.26648">
        <ele>415</ele>
        <time>2018-02-22T18:57:15Z</time>
      </trkpt>
      <trkpt lat="46.31713" lon="6.26608">
        <ele>415</ele>
        <time>2018-02-22T18:57:27Z</time>
      </trkpt>
      <trkpt lat="46.31755" lon="6.26591">
        <ele>414</ele>
        <time>2018-02-22T18:57:42Z</time>
      </trkpt>
      <trkpt lat="46.31789" lon="6.26586">
        <ele>413</ele>
        <time>2018-02-22T18:57:44Z</time>
      </trkpt>
      <trkpt lat="46.31825" lon="6.2658">
        <ele>412</ele>
        <time>2018-02-22T18:58:03Z</time>
      </trkpt>
      <trkpt lat="46.31843" lon="6.26573">
        <ele>411</ele>
        <time>2018-02-22T18:58:08Z</time>
      </trkpt>
      <trkpt lat="46.31858" lon="6.26562">
        <ele>411</ele>
        <time>2018-02-22T18:58:14Z</time>
      </trkpt>
      <trkpt lat="46.31903" lon="6.26522">
        <ele>409</ele>
        <time>2018-02-22T18:58:34Z</time>
      </trkpt>
      <trkpt lat="46.32023" lon="6.26414">
        <ele>406</ele>
        <time>2018-02-22T18:58:44Z</time>
      </trkpt>
      <trkpt lat="46.32106" lon="6.26336">
        <ele>404</ele>
        <time>2018-02-22T18:58:51Z</time>
      </trkpt>
      <trkpt lat="46.3213" lon="6.2632">
        <ele>402</ele>
        <time>2018-02-22T18:58:57Z</time>
      </trkpt>
      <trkpt lat="46.32184" lon="6.26295">
        <ele>400</ele>
        <time>2018-02-22T18:59:15Z</time>
      </trkpt>
      <trkpt lat="46.32206" lon="6.26284">
        <ele>397</ele>
        <time>2018-02-22T18:59:31Z</time>
      </trkpt>
      <trkpt lat="46.32222" lon="6.26271">
        <ele>395</ele>
        <time>2018-02-22T18:59:42Z</time>
      </trkpt>
      <trkpt lat="46.32242" lon="6.26248">
        <ele>393</ele>
        <time>2018-02-22T18:59:57Z</time>
      </trkpt>
      <trkpt lat="46.32288" lon="6.26163">
        <ele>391</ele>
        <time>2018-02-22T19:00:04Z</time>
      </trkpt>
      <trkpt lat="46.32313" lon="6.26108">
        <ele>387</ele>
        <time>2018-02-22T19:00:23Z</time>
      </trkpt>
      <trkpt lat="46.32348" lon="6.26007">
        <ele>384</ele>
        <time>2018-02-22T19:00:33Z</time>
      </trkpt>
      <trkpt lat="46.32369" lon="6.25946">
        <ele>381</ele>
        <time>2018-02-22T19:00:39Z</time>
      </trkpt>
      <trkpt lat="46.32378" lon="6.2597">
        <ele>381</ele>
        <time>2018-02-22T19:00:45Z</time>
      </trkpt>
      <trkpt lat="46.32403" lon="6.26035">
        <ele>385</ele>
        <time>2018-02-22T19:00:51Z</time>
      </trkpt>
      <trkpt lat="46.32455" lon="6.26161">
        <ele>389</ele>
        <time>2018-02-22T19:01:11Z</time>
      </trkpt>
      <trkpt lat="46.32471" lon="6.26188">
        <ele>394</ele>
        <time>2018-02-22T19:01:22Z</time>
      </trkpt>
      <trkpt lat="46.32509" lon="6.26224">
        <ele>399</ele>
        <time>2018-02-22T19:01:26Z</time>
      </trkpt>
      <trkpt lat="46.32629" lon="6.26327">
        <ele>403</ele>
        <time>2018-02-22T19:01:38Z</time>
      </trkpt>
      <trkpt lat="46.32702" lon="6.26392">
        <ele>408</ele>
        <time>2018-02-22T19:01:46Z</time>
      </trkpt>
      <trkpt lat="46.32717" lon="6.26411">
        <ele>409</ele>
        <time>2018-02-22T19:02:03Z</time>
      </trkpt>
      <trkpt lat="46.32734" lon="6.26441">
        <ele>409</ele>
        <time>2018-02-22T19:02:18Z</time>
      </trkpt>
      <trkpt lat="46.32753" lon="6.26476">
        <ele>410</ele>
        <time>2018-02-22T19:02:20Z</time>
      </trkpt>
      <trkpt lat="46.32782" lon="6.26535">
        <ele>411</ele>
        <time>2018-02-22T19:02:34Z</time>
      </trkpt>
      <trkpt lat="46.3279" lon="6.26563">
        <ele>411</ele>
        <time>2018-02-22T19:02:38Z</time>
      </trkpt>
      <trkpt lat="46.3279" lon="6.26575">
        <ele>411</ele>
        <time>2018-02-22T19:02:58Z</time>
      </trkpt>
      <trkpt lat="46.32788" lon="6.2659">
        <ele>412</ele>
        <time>2018-02-22T19:03:13Z</time>
      </trkpt>
      <trkpt lat="46.32772" lon="6.26634">
        <ele>413</ele>
        <time>2018-02-22T19:03:17Z</time>
      </trkpt>
      <trkpt lat="46.32737" lon="6.2672">
        <ele>415</ele>
        <time>2018-02-22T19:03:34Z</time>
      </trkpt>
      <trkpt lat="46.3272" lon="6.26761">
        <ele>417</ele>
        <time>2018-02-22T19:03:47Z</time>
      </trkpt>
      <trkpt lat="46.32723" lon="6.26765">
        <ele>417</ele>
        <time>2018-02-22T19:03:58Z</time>
      </trkpt>
      <trkpt lat="46.32753" lon="6.26787">
        <ele>417</ele>
        <time>2018-02-22T19:04:08Z</time>
      </trkpt>
      <trkpt lat="46.32777" lon="6.26801">
        <ele>416</ele>
        <time>2018-02-22T19:04:16Z</time>
      </trkpt>
      <trkpt lat="46.32796" lon="6.26816">
        <ele>416</ele>
        <time>2018-02-22T19:04:23Z</time>
      </trkpt>
      <trkpt lat="46.32805" lon="6.26827">
        <ele>416</ele>
        <time>2018-02-22T19:04:40Z</time>
      </trkpt>
      <trkpt lat="46.32794" lon="6.26865">
        <ele>416</ele>
        <time>2018-02-22T19:04:59Z</time>
      </trkpt>
      <trkpt lat="46.32776" lon="6.26971">
        <ele>416</ele>
        <time>2018-02-22T19:05:11Z</time>
      </trkpt>
      <trkpt lat="46.32768" lon="6.26988">
        <ele>416</ele>
        <time>2018-02-22T19:05:31Z</time>
      </trkpt>
      <trkpt lat="46.32761" lon="6.27016">
        <ele>417</ele>
        <time>2018-02-22T19:05:37Z</time>
      </trkpt>
      <trkpt lat="46.32755" lon="6.27058">
        <ele>419</ele>
        <time>2018-02-22T19:05:52Z</time>
      </trkpt>
      <trkpt lat="46.32743" lon="6.27101">
        <ele>420</ele>
        <time>2018-02-22T19:06:08Z</time>
      </trkpt>
      <trkpt lat="46.32703" lon="6.27201">
        <ele>421</ele>
        <time>2018-02-22T19:06:19Z</time>
      </trkpt>
      <trkpt lat="46.32715" lon="6.27218">
        <ele>422</ele>
        <time>2018-02-22T19:06:27Z</time>
      </trkpt>
      <trkpt lat="46.32723" lon="6.27247">
        <ele>423</ele>
        <time>2018-02-22T19:06:35Z</time>
      </trkpt>
      <trkpt lat="46.32751" lon="6.27322">
        <ele>424</ele>
        <time>2018-02-22T19:06:44Z</time>
      </trkpt>
      <trkpt lat="46.32782" lon="6.27395">
        <ele>425</ele>
        <time>2018-02-22T19:07:01Z</time>
      </trkpt>
      <trkpt lat="46.32808" lon="6.27439">
        <ele>426</ele>
        <time>2018-02-22T19:07:17Z</time>
      </trkpt>
      <trkpt lat="46.32807" lon="6.2744">
        <ele>426</ele>
        <time>2018-02-22T19:07:31Z</time>
      </trkpt>
      <trkpt lat="46.32806" lon="6.27442">
        <ele>426</ele>
        <time>2018-02-22T19:07:33Z</time>
      </trkpt>
      <trkpt lat="46.32806" lon="6.27444">
        <ele>426</ele>
        <time>2018-02-22T19:07:40Z</time>
      </trkpt>
      <trkpt lat="46.32805" lon="6.27447">
        <ele>426</ele>
        <time>2018-02-22T19:07:49Z</time>
      </trkpt>
      <trkpt lat="46.32806" lon="6.27453">
        <ele>426</ele>
        <time>2018-02-22T19:08:09Z</time>
      </trkpt>
      <trkpt lat="46.32808" lon="6.27456">
        <ele>427</ele>
        <time>2018-02-22T19:08:11Z</time>
      </trkpt>
      <trkpt lat="46.32692" lon="6.27647">
        <ele>428</ele>
        <time>2018-02-22T19:08:17Z</time>
      </trkpt>
      <trkpt lat="46.32579" lon="6.27832">
        <ele>429</ele>
        <time>2018-02-22T19:08:35Z</time>
      </trkpt>
      <trkpt lat="46.32559" lon="6.27865">
        <ele>429</ele>
        <time>2018-02-22T19:08:39Z</time>
      </trkpt>
      <trkpt lat="46.32565" lon="6.27888">
        <ele>431</ele>
        <time>2018-02-22T19:08:58Z</time>
      </trkpt>
      <trkpt lat="46.32606" lon="6.28023">
        <ele>435</ele>
        <time>2018-02-22T19:09:00Z</time>
      </trkpt>
      <trkpt lat="46.32648" lon="6.28217">
        <ele>439</ele>
        <time>2018-02-22T19:09:05Z</time>
      </trkpt>
      <trkpt lat="46.3266" lon="6.28267">
        <ele>441</ele>
        <time>2018-02-22T19:09:13Z</time>
      </trkpt>
      <trkpt lat="46.32664" lon="6.28294">
        <ele>440</ele>
        <time>2018-02-22T19:09:27Z</time>
      </trkpt>
      <trkpt lat="46.32667" lon="6.28325">
        <ele>439</ele>
        <time>2018-02-22T19:09:42Z</time>
      </trkpt>
      <trkpt lat="46.32666" lon="6.28356">
        <ele>444</ele>
        <time>2018-02-22T19:09:55Z</time>
      </trkpt>
      <trkpt lat="46.32619" lon="6.28857">
        <ele>449</ele>
        <time>2018-02-22T19:10:14Z</time>
      </trkpt>
      <trkpt lat="46.32594" lon="6.29088">
        <ele>451</ele>
        <time>2018-02-22T19:10:23Z</time>
      </trkpt>
      <trkpt lat="46.32587" lon="6.29203">
        <ele>444</ele>
        <time>2018-02-22T19:10:34Z</time>
      </trkpt>
      <trkpt lat="46.32593" lon="6.29257">
        <ele>438</ele>
        <time>2018-02-22T19:10:37Z</time>
      </trkpt>
      <trkpt lat="46.32601" lon="6.29272">
        <ele>436</ele>
        <time>2018-02-22T19:10:56Z</time>
      </trkpt>
      <trkpt lat="46.32613" lon="6.29289">
        <ele>436</ele>
        <time>2018-02-22T19:11:01Z</time>
      </trkpt>
      <trkpt lat="46.32718" lon="6.29416">
        <ele>437</ele>
        <time>2018-02-22T19:11:06Z</time>
      </trkpt>
      <trkpt lat="46.32792" lon="6.29502">
        <ele>437</ele>
        <time>2018-02-22T19:11:18Z</time>
      </trkpt>
      <trkpt lat="46.32805" lon="6.2952">
        <ele>437</ele>
        <time>2018-02-22T19:11:37Z</time>
      </trkpt>
      <trkpt lat="46.32889" lon="6.29624">
        <ele>436</ele>
        <time>2018-02-22T19:11:47Z</time>
      </trkpt>
      <trkpt lat="46.32976" lon="6.29732">
        <ele>435</ele>
        <time>2018-02-22T19:12:05Z</time>
      </trkpt>
      <trkpt lat="46.33118" lon="6.29905">
        <ele>434</ele>
        <time>2018-02-22T19:12:12Z</time>
      </trkpt>
      <trkpt lat="46.3325" lon="6.30065">
        <ele>434</ele>
        <time>2018-02-22T19:12:18Z</time>
      </trkpt>
      <trkpt lat="46.33276" lon="6.30096">
        <ele>435</ele>
        <time>2018-02-22T19:12:34Z</time>
      </trkpt>
      <trkpt lat="46.33269" lon="6.30116">
        <ele>433</ele>
        <time>2018-02-22T19:12:46Z</time>
      </trkpt>
      <trkpt lat="46.3323" lon="6.30196">
        <ele>432</ele>
        <time>2018-02-22T19:13:03Z</time>
      </trkpt>
      <trkpt lat="46.33212" lon="6.30221">
        <ele>430</ele>
        <time>2018-02-22T19:13:22Z</time>
      </trkpt>
      <trkpt lat="46.33189" lon="6.30246">
        <ele>429</ele>
        <time>2018-02-22T19:13:37Z</time>
      </trkpt>
      <trkpt lat="46.33168" lon="6.30276">
        <ele>428</ele>
        <time>2018-02-22T19:13:53Z</time>
      </trkpt>
      <trkpt lat="46.33157" lon="6.30293">
        <ele>427</ele>
        <time>2018-02-22T19:14:01Z</time>
      </trkpt>
      <trkpt lat="46.33144" lon="6.30324">
        <ele>426</ele>
        <time>2018-02-22T19:14:18Z</time>
      </trkpt>
      <trkpt lat="46.33119" lon="6.30398">
        <ele>425</ele>
        <time>2018-02-22T19:14:34Z</time>
      </trkpt>
      <trkpt lat="46.33093" lon="6.30464">
        <ele>423</ele>
        <time>2018-02-22T19:14:54Z</time>
      </trkpt>
      <trkpt lat="46.33072" lon="6.30534">
        <ele>422</ele>
        <time>2018-02-22T19:15:09Z</time>
      </trkpt>
      <trkpt lat="46.33019" lon="6.30704">
        <ele>423</ele>
        <time>2018-02-22T19:15:29Z</time>
      </trkpt>
      <trkpt lat="46.32971" lon="6.30801">
        <ele>424</ele>
        <time>2018-02-22T19:15:47Z</time>
      </trkpt>
      <trkpt lat="46.32961" lon="6.30828">
        <ele>425</ele>
        <time>2018-02-22T19:16:02Z</time>
      </trkpt>
      <trkpt lat="46.32958" lon="6.30853">
        <ele>425</ele>
        <time>2018-02-22T19:16:18Z</time>
      </trkpt>
      <trkpt lat="46.32959" lon="6.30876">
        <ele>425</ele>
        <time>2018-02-22T19:16:36Z</time>
      </trkpt>
      <trkpt lat="46.32968" lon="6.30919">
        <ele>424</ele>
        <time>2018-02-22T19:16:47Z</time>
      </trkpt>
      <trkpt lat="46.32983" lon="6.3098">
        <ele>424</ele>
        <time>2018-02-22T19:17:06Z</time>
      </trkpt>
      <trkpt lat="46.32988" lon="6.30999">
        <ele>424</ele>
        <time>2018-02-22T19:17:13Z</time>
      </trkpt>
      <trkpt lat="46.32991" lon="6.31022">
        <ele>425</ele>
        <time>2018-02-22T19:17:27Z</time>
      </trkpt>
      <trkpt lat="46.32989" lon="6.31042">
        <ele>426</ele>
        <time>2018-02-22T19:17:30Z</time>
      </trkpt>
      <trkpt lat="46.32985" lon="6.31058">
        <ele>426</ele>
        <time>2018-02-22T19:17:32Z</time>
      </trkpt>
      <trkpt lat="46.32978" lon="6.31071">
        <ele>427</ele>
        <time>2018-02-22T19:17:36Z</time>
      </trkpt>
      <trkpt lat="46.32964" lon="6.31087">
        <ele>428</ele>
        <time>2018-02-22T19:17:39Z</time>
      </trkpt>
      <trkpt lat="46.32939" lon="6.31106">
        <ele>428</ele>
        <time>2018-02-22T19:17:46Z</time>
      </trkpt>
      <trkpt lat="46.32914" lon="6.31136">
        <ele>428</ele>
        <time>2018-02-22T19:18:01Z</time>
      </trkpt>
      <trkpt lat="46.32883" lon="6.3117">
        <ele>427</ele>
        <time>2018-02-22T19:18:05Z</time>
      </trkpt>
      <trkpt lat="46.32829" lon="6.3122">
        <ele>425</ele>
        <time>2018-02-22T19:18:19Z</time>
      </trkpt>
      <trkpt lat="46.32768" lon="6.31277">
        <ele>422</ele>
        <time>2018-02-22T19:18:23Z</time>
      </trkpt>
      <trkpt lat="46.32725" lon="6.31321">
        <ele>421</ele>
        <time>2018-02-22T19:18:26Z</time>
      </trkpt>
      <trkpt lat="46.32683" lon="6.31362">
        <ele>420</ele>
        <time>2018-02-22T19:18:46Z</time>
      </trkpt>
      <trkpt lat="46.32656" lon="6.31394">
        <ele>420</ele>
        <time>2018-02-22T19:18:53Z</time>
      </trkpt>
      <trkpt lat="46.32635" lon="6.31428">
        <ele>419</ele>
        <time>2018-02-22T19:19:10Z</time>
      </trkpt>
      <trkpt lat="46.32614" lon="6.31476">
        <ele>419</ele>
        <time>2018-02-22T19:19:14Z</time>
      </trkpt>
      <trkpt lat="46.32586" lon="6.31541">
        <ele>419</ele>
        <time>2018-02-22T19:19:20Z</time>
      </trkpt>
      <trkpt lat="46.32576" lon="6.31588">
        <ele>420</ele>
        <time>2018-02-22T19:19:32Z</time>
      </trkpt>
      <trkpt lat="46.32571" lon="6.31612">
        <ele>420</ele>
        <time>2018-02-22T19:19:39Z</time>
      </trkpt>
      <trkpt lat="46.32563" lon="6.31634">
        <ele>420</ele>
        <time>2018-02-22T19:19:53Z</time>
      </trkpt>
      <trkpt lat="46.32548" lon="6.3166">
        <ele>420</ele>
        <time>2018-02-22T19:19:58Z</time>
      </trkpt>
      <trkpt lat="46.32516" lon="6.31703">
        <ele>421</ele>
        <time>2018-02-22T19:20:14Z</time>
      </trkpt>
      <trkpt lat="46.32488" lon="6.31754">
        <ele>422</ele>
        <time>2018-02-22T19:20:18Z</time>
      </trkpt>
      <trkpt lat="46.3248" lon="6.31774">
        <ele>422</ele>
        <time>2018-02-22T19:20:23Z</time>
      </trkpt>
      <trkpt lat="46.3247" lon="6.31811">
        <ele>423</ele>
        <time>2018-02-22T19:20:42Z</time>
      </trkpt>
      <trkpt lat="46.32456" lon="6.31863">
        <ele>423</ele>
        <time>2018-02-22T19:20:46Z</time>
      </trkpt>
      <trkpt lat="46.32439" lon="6.31916">
        <ele>423</ele>
        <time>2018-02-22T19:20:48Z</time>
      </trkpt>
      <trkpt lat="46.32433" lon="6.31926">
        <ele>423</ele>
        <time>2018-02-22T19:20:57Z</time>
      </trkpt>
      <trkpt lat="46.32396" lon="6.31965">
        <ele>424</ele>
        <time>2018-02-22T19:21:01Z</time>
      </trkpt>
      <trkpt lat="46.32328" lon="6.32027">
        <ele>425</ele>
        <time>2018-02-22T19:21:17Z</time>
      </trkpt>
      <trkpt lat="46.32309" lon="6.32052">
        <ele>425</ele>
        <time>2018-02-22T19:21:23Z</time>
      </trkpt>
      <trkpt lat="46.32296" lon="6.32074">
        <ele>425</ele>
        <time>2018-02-22T19:21:28Z</time>
      </trkpt>
      <trkpt lat="46.3228" lon="6.32091">
        <ele>426</ele>
        <time>2018-02-22T19:21:30Z</time>
      </trkpt>
      <trkpt lat="46.32202" lon="6.32156">
        <ele>426</ele>
        <time>2018-02-22T19:21:45Z</time>
      </trkpt>
      <trkpt lat="46.32192" lon="6.32172">
        <ele>426</ele>
        <time>2018-02-22T19:22:01Z</time>
      </trkpt>
      <trkpt lat="46.32188" lon="6.32207">
        <ele>426</ele>
        <time>2018-02-22T19:22:20Z</time>
      </trkpt>
      <trkpt lat="46.32189" lon="6.32322">
        <ele>426</ele>
        <time>2018-02-22T19:22:30Z</time>
      </trkpt>
      <trkpt lat="46.32187" lon="6.32347">
        <ele>425</ele>
        <time>2018-02-22T19:22:38Z</time>
      </trkpt>
      <trkpt lat="46.32178" lon="6.32392">
        <ele>425</ele>
        <time>2018-02-22T19:22:47Z</time>
      </trkpt>
      <trkpt lat="46.32139" lon="6.32532">
        <ele>425</ele>
        <time>2018-02-22T19:23:02Z</time>
      </trkpt>
      <trkpt lat="46.32121" lon="6.32577">
        <ele>425</ele>
        <time>2018-02-22T19:23:14Z</time>
      </trkpt>
      <trkpt lat="46.32091" lon="6.32628">
        <ele>425</ele>
        <time>2018-02-22T19:23:16Z</time>
      </trkpt>
      <trkpt lat="46.32044" lon="6.32711">
        <ele>425</ele>
        <time>2018-02-22T19:23:26Z</time>
      </trkpt>
      <trkpt lat="46.32024" lon="6.32751">
        <ele>425</ele>
        <time>2018-02-22T19:23:37Z</time>
      </trkpt>
      <trkpt lat="46.31954" lon="6.32892">
        <ele>425</ele>
        <time>2018-02-22T19:23:53Z</time>
      </trkpt>
      <trkpt lat="46.31946" lon="6.32905">
        <ele>425</ele>
        <time>2018-02-22T19:24:09Z</time>
      </trkpt>
      <trkpt lat="46.31937" lon="6.32924">
        <ele>426</ele>
        <time>2018-02-22T19:24:16Z</time>
      </trkpt>
      <trkpt lat="46.31865" lon="6.33055">
        <ele>427</ele>
        <time>2018-02-22T19:24:30Z</time>
      </trkpt>
      <trkpt lat="46.31855" lon="6.3307">
        <ele>429</ele>
        <time>2018-02-22T19:24:45Z</time>
      </trkpt>
      <trkpt lat="46.31848" lon="6.33058">
        <ele>429</ele>
        <time>2018-02-22T19:25:03Z</time>
      </trkpt>
      <trkpt lat="46.31831" lon="6.33081">
        <ele>429</ele>
        <time>2018-02-22T19:25:16Z</time>
      </trkpt>
      <trkpt lat="46.3182" lon="6.33094">
        <ele>430</ele>
        <time>2018-02-22T19:25:20Z</time>
      </trkpt>
      <trkpt lat="46.31779" lon="6.3314">
        <ele>431</ele>
        <time>2018-02-22T19:25:28Z</time>
      </trkpt>
      <trkpt lat="46.31754" lon="6.33175">
        <ele>433</ele>
        <time>2018-02-22T19:25:48Z</time>
      </trkpt>
      <trkpt lat="46.31718" lon="6.33233">
        <ele>435</ele>
        <time>2018-02-22T19:26:08Z</time>
      </trkpt>
      <trkpt lat="46.31695" lon="6.3327">
        <ele>436</ele>
        <time>2018-02-22T19:26:12Z</time>
      </trkpt>
      <trkpt lat="46.3163" lon="6.33362">
        <ele>435</ele>
        <time>2018-02-22T19:26:16Z</time>
      </trkpt>
      <trkpt lat="46.31568" lon="6.33457">
        <ele>434</ele>
        <time>2018-02-22T19:26:34Z</time>
      </trkpt>
      <trkpt lat="46.3148" lon="6.33587">
        <ele>434</ele>
        <time>2018-02-22T19:26:46Z</time>
      </trkpt>
      <trkpt lat="46.31472" lon="6.33596">
        <ele>435</ele>
        <time>2018-02-22T19:26:57Z</time>
      </trkpt>
      <trkpt lat="46.31466" lon="6.33599">
        <ele>435</ele>
        <time>2018-02-22T19:27:17Z</time>
      </trkpt>
      <trkpt lat="46.31454" lon="6.33595">
        <ele>436</ele>
        <time>2018-02-22T19:27:33Z</time>
      </trkpt>
      <trkpt lat="46.31435" lon="6.33584">
        <ele>436</ele>
        <time>2018-02-22T19:27:51Z</time>
      </trkpt>
      <trkpt lat="46.31429" lon="6.33583">
        <ele>436</ele>
        <time>2018-02-22T19:28:04Z</time>
      </trkpt>
      <trkpt lat="46.31412" lon="6.33602">
        <ele>439</ele>
        <time>2018-02-22T19:28:19Z</time>
      </trkpt>
      <trkpt lat="46.31385" lon="6.3365">
        <ele>441</ele>
        <time>2018-02-22T19:28:25Z</time>
      </trkpt>
      <trkpt lat="46.31372" lon="6.33663">
        <ele>444</ele>
        <time>2018-02-22T19:28:41Z</time>
      </trkpt>
      <trkpt lat="46.31358" lon="6.33664">
        <ele>445</ele>
        <time>2018-02-22T19:28:56Z</time>
      </trkpt>
      <trkpt lat="46.31347" lon="6.33657">
        <ele>447</ele>
        <time>2018-02-22T19:29:12Z</time>
      </trkpt>
      <trkpt lat="46.31291" lon="6.33607">
        <ele>449</ele>
        <time>2018-02-22T19:29:32Z</time>
      </trkpt>
      <trkpt lat="46.31275" lon="6.33596">
        <ele>451</ele>
        <time>2018-02-22T19:29:41Z</time>
      </trkpt>
      <trkpt lat="46.31262" lon="6.33596">
        <ele>453</ele>
        <time>2018-02-22T19:29:57Z</time>
      </trkpt>
      <trkpt lat="46.31252" lon="6.33604">
        <ele>454</ele>
        <time>2018-02-22T19:30:09Z</time>
      </trkpt>
      <trkpt lat="46.31247" lon="6.33615">
        <ele>456</ele>
        <time>2018-02-22T19:30:16Z</time>
      </trkpt>
      <trkpt lat="46.31246" lon="6.33631">
        <ele>457</ele>
        <time>2018-02-22T19:30:30Z</time>
      </trkpt>
      <trkpt lat="46.31253" lon="6.33673">
        <ele>460</ele>
        <time>2018-02-22T19:30:46Z</time>
      </trkpt>
      <trkpt lat="46.3127" lon="6.33765">
        <ele>463</ele>
        <time>2018-02-22T19:30:51Z</time>
      </trkpt>
      <trkpt lat="46.31284" lon="6.33811">
        <ele>467</ele>
        <time>2018-02-22T19:31:06Z</time>
      </trkpt>
      <trkpt lat="46.31299" lon="6.33855">
        <ele>469</ele>
        <time>2018-02-22T19:31:13Z</time>
      </trkpt>
      <trkpt lat="46.31301" lon="6.33893">
        <ele>471</ele>
        <time>2018-02-22T19:31:30Z</time>
      </trkpt>
      <trkpt lat="46.31301" lon="6.3394">
        <ele>474</ele>
        <time>2018-02-22T19:31:50Z</time>
      </trkpt>
      <trkpt lat="46.31312" lon="6.34022">
        <ele>477</ele>
        <time>2018-02-22T19:31:55Z</time>
      </trkpt>
      <trkpt lat="46.31318" lon="6.34039">
        <ele>479</ele>
        <time>2018-02-22T19:31:59Z</time>
      </trkpt>
      <trkpt lat="46.31343" lon="6.34081">
        <ele>481</ele>
        <time>2018-02-22T19:32:19Z</time>
      </trkpt>
      <trkpt lat="46.31355" lon="6.341">
        <ele>482</ele>
        <time>2018-02-22T19:32:23Z</time>
      </trkpt>
      <trkpt lat="46.31361" lon="6.34122">
        <ele>483</ele>
        <time>2018-02-22T19:32:32Z</time>
      </trkpt>
      <trkpt lat="46.3136" lon="6.34144">
        <ele>484</ele>
        <time>2018-02-22T19:32:50Z</time>
      </trkpt>
      <trkpt lat="46.31352" lon="6.34176">
        <ele>486</ele>
        <time>2018-02-22T19:32:56Z</time>
      </trkpt>
      <trkpt lat="46.31344" lon="6.34209">
        <ele>488</ele>
        <time>2018-02-22T19:33:01Z</time>
      </trkpt>
      <trkpt lat="46.31344" lon="6.3423">
        <ele>489</ele>
        <time>2018-02-22T19:33:15Z</time>
      </trkpt>
      <trkpt lat="46.3135" lon="6.34264">
        <ele>491</ele>
        <time>2018-02-22T19:33:27Z</time>
      </trkpt>
      <trkpt lat="46.31364" lon="6.34344">
        <ele>493</ele>
        <time>2018-02-22T19:33:43Z</time>
      </trkpt>
      <trkpt lat="46.31376" lon="6.34407">
        <ele>498</ele>
        <time>2018-02-22T19:33:58Z</time>
      </trkpt>
      <trkpt lat="46.31385" lon="6.34477">
        <ele>504</ele>
        <time>2018-02-22T19:34:10Z</time>
      </trkpt>
      <trkpt lat="46.31384" lon="6.34494">
        <ele>510</ele>
        <time>2018-02-22T19:34:19Z</time>
      </trkpt>
      <trkpt lat="46.31381" lon="6.34504">
        <ele>514</ele>
        <time>2018-02-22T19:34:30Z</time>
      </trkpt>
      <trkpt lat="46.31375" lon="6.34514">
        <ele>517</ele>
        <time>2018-02-22T19:34:39Z</time>
      </trkpt>
      <trkpt lat="46.31364" lon="6.34517">
        <ele>518</ele>
        <time>2018-02-22T19:34:58Z</time>
      </trkpt>
      <trkpt lat="46.31355" lon="6.34513">
        <ele>518</ele>
        <time>2018-02-22T19:35:07Z</time>
      </trkpt>
      <trkpt lat="46.3135" lon="6.34501">
        <ele>516</ele>
        <time>2018-02-22T19:35:26Z</time>
      </trkpt>
      <trkpt lat="46.31348" lon="6.34475">
        <ele>512</ele>
        <time>2018-02-22T19:35:30Z</time>
      </trkpt>
      <trkpt lat="46.31344" lon="6.34452">
        <ele>510</ele>
        <time>2018-02-22T19:35:44Z</time>
      </trkpt>
      <trkpt lat="46.31333" lon="6.34436">
        <ele>509</ele>
        <time>2018-02-22T19:35:53Z</time>
      </trkpt>
      <trkpt lat="46.31321" lon="6.34427">
        <ele>511</ele>
        <time>2018-02-22T19:36:01Z</time>
      </trkpt>
      <trkpt lat="46.31288" lon="6.3442">
        <ele>515</ele>
        <time>2018-02-22T19:36:04Z</time>
      </trkpt>
      <trkpt lat="46.31268" lon="6.34414">
        <ele>522</ele>
        <time>2018-02-22T19:36:13Z</time>
      </trkpt>
      <trkpt lat="46.3125" lon="6.34395">
        <ele>528</ele>
        <time>2018-02-22T19:36:30Z</time>
      </trkpt>
      <trkpt lat="46.31236" lon="6.34373">
        <ele>532</ele>
        <time>2018-02-22T19:36:39Z</time>
      </trkpt>
      <trkpt lat="46.31222" lon="6.34357">
        <ele>533</ele>
        <time>2018-02-22T19:36:49Z</time>
      </trkpt>
      <trkpt lat="46.31187" lon="6.3433">
        <ele>533</ele>
        <time>2018-02-22T19:36:54Z</time>
      </trkpt>
      <trkpt lat="46.31168" lon="6.34305">
        <ele>532</ele>
        <time>2018-02-22T19:37:08Z</time>
      </trkpt>
      <trkpt lat="46.31147" lon="6.34282">
        <ele>531</ele>
        <time>2018-02-22T19:37:11Z</time>
      </trkpt>
      <trkpt lat="46.31119" lon="6.34266">
        <ele>531</ele>
        <time>2018-02-22T19:37:16Z</time>
      </trkpt>
      <trkpt lat="46.31105" lon="6.34256">
        <ele>531</ele>
        <time>2018-02-22T19:37:33Z</time>
      </trkpt>
      <trkpt lat="46.31089" lon="6.3424">
        <ele>536</ele>
        <time>2018-02-22T19:37:41Z</time>
      </trkpt>
      <trkpt lat="46.31071" lon="6.3422">
        <ele>543</ele>
        <time>2018-02-22T19:37:59Z</time>
      </trkpt>
      <trkpt lat="46.31056" lon="6.34216">
        <ele>551</ele>
        <time>2018-02-22T19:38:13Z</time>
      </trkpt>
      <trkpt lat="46.31038" lon="6.34225">
        <ele>555</ele>
        <time>2018-02-22T19:38:17Z</time>
      </trkpt>
      <trkpt lat="46.31022" lon="6.34237">
        <ele>558</ele>
        <time>2018-02-22T19:38:28Z</time>
      </trkpt>
      <trkpt lat="46.31002" lon="6.34254">
        <ele>561</ele>
        <time>2018-02-22T19:38:45Z</time>
      </trkpt>
      <trkpt lat="46.30992" lon="6.34271">
        <ele>563</ele>
        <time>2018-02-22T19:39:04Z</time>
      </trkpt>
      <trkpt lat="46.3099" lon="6.34282">
        <ele>564</ele>
        <time>2018-02-22T19:39:20Z</time>
      </trkpt>
      <trkpt lat="46.30991" lon="6.34306">
        <ele>565</ele>
        <time>2018-02-22T19:39:24Z</time>
      </trkpt>
      <trkpt lat="46.30997" lon="6.34337">
        <ele>566</ele>
        <time>2018-02-22T19:39:28Z</time>
      </trkpt>
      <trkpt lat="46.30998" lon="6.34376">
        <ele>568</ele>
        <time>2018-02-22T19:39:38Z</time>
      </trkpt>
      <trkpt lat="46.30989" lon="6.3444">
        <ele>570</ele>
        <time>2018-02-22T19:39:42Z</time>
      </trkpt>
      <trkpt lat="46.3099" lon="6.34456">
        <ele>573</ele>
        <time>2018-02-22T19:39:49Z</time>
      </trkpt>
      <trkpt lat="46.30994" lon="6.3447">
        <ele>575</ele>
        <time>2018-02-22T19:40:05Z</time>
      </trkpt>
      <trkpt lat="46.31008" lon="6.34503">
        <ele>578</ele>
        <time>2018-02-22T19:40:11Z</time>
      </trkpt>
      <trkpt lat="46.31015" lon="6.34551">
        <ele>579</ele>
        <time>2018-02-22T19:40:15Z</time>
      </trkpt>
      <trkpt lat="46.31014" lon="6.34585">
        <ele>579</ele>
        <time>2018-02-22T19:40:31Z</time>
      </trkpt>
      <trkpt lat="46.31012" lon="6.34597">
        <ele>579</ele>
        <time>2018-02-22T19:40:33Z</time>
      </trkpt>
      <trkpt lat="46.31004" lon="6.34612">
        <ele>579</ele>
        <time>2018-02-22T19:40:47Z</time>
      </trkpt>
      <trkpt lat="46.30995" lon="6.34622">
        <ele>580</ele>
        <time>2018-02-22T19:40:53Z</time>
      </trkpt>
      <trkpt lat="46.30982" lon="6.34626">
        <ele>582</ele>
        <time>2018-02-22T19:41:07Z</time>
      </trkpt>
      <trkpt lat="46.30976" lon="6.34626">
        <ele>583</ele>
        <time>2018-02-22T19:41:24Z</time>
      </trkpt>
      <trkpt lat="46.30966" lon="6.34621">
        <ele>584</ele>
        <time>2018-02-22T19:41:32Z</time>
      </trkpt>
      <trkpt lat="46.30959" lon="6.34612">
        <ele>585</ele>
        <time>2018-02-22T19:41:36Z</time>
      </trkpt>
      <trkpt lat="46.30954" lon="6.34598">
        <ele>586</ele>
        <time>2018-02-22T19:41:46Z</time>
      </trkpt>
      <trkpt lat="46.30949" lon="6.34572">
        <ele>587</ele>
        <time>2018-02-22T19:41:48Z</time>
      </trkpt>
      <trkpt lat="46.30946" lon="6.34535">
        <ele>588</ele>
        <time>2018-02-22T19:41:58Z</time>
      </trkpt>
      <trkpt lat="46.3094" lon="6.34511">
        <ele>588</ele>
        <time>2018-02-22T19:42:08Z</time>
      </trkpt>
      <trkpt lat="46.30936" lon="6.345">
        <ele>589</ele>
        <time>2018-02-22T19:42:27Z</time>
      </trkpt>
      <trkpt lat="46.30923" lon="6.3448">
        <ele>590</ele>
        <time>2018-02-22T19:42:46Z</time>
      </trkpt>
      <trkpt lat="46.30878" lon="6.34425">
        <ele>595</ele>
        <time>2018-02-22T19:43:06Z</time>
      </trkpt>
      <trkpt lat="46.30845" lon="6.34383">
        <ele>599</ele>
        <time>2018-02-22T19:43:12Z</time>
      </trkpt>
      <trkpt lat="46.30831" lon="6.34356">
        <ele>605</ele>
        <time>2018-02-22T19:43:20Z</time>
      </trkpt>
      <trkpt lat="46.3082" lon="6.34321">
        <ele>607</ele>
        <time>2018-02-22T19:43:39Z</time>
      </trkpt>
      <trkpt lat="46.30816" lon="6.34292">
        <ele>610</ele>
        <time>2018-02-22T19:43:46Z</time>
      </trkpt>
      <trkpt lat="46.30816" lon="6.34263">
        <ele>611</ele>
        <time>2018-02-22T19:44:06Z</time>
      </trkpt>
      <trkpt lat="46.30819" lon="6.34244">
        <ele>613</ele>
        <time>2018-02-22T19:44:12Z</time>
      </trkpt>
      <trkpt lat="46.30844" lon="6.34192">
        <ele>615</ele>
        <time>2018-02-22T19:44:21Z</time>
      </trkpt>
      <trkpt lat="46.30847" lon="6.34175">
        <ele>617</ele>
        <time>2018-02-22T19:44:23Z</time>
      </trkpt>
      <trkpt lat="46.30844" lon="6.34151">
        <ele>619</ele>
        <time>2018-02-22T19:44:37Z</time>
      </trkpt>
      <trkpt lat="46.3083" lon="6.34122">
        <ele>620</ele>
        <time>2018-02-22T19:44:56Z</time>
      </trkpt>
      <trkpt lat="46.30809" lon="6.34086">
        <ele>623</ele>
        <time>2018-02-22T19:45:14Z</time>
      </trkpt>
      <trkpt lat="46.30795" lon="6.34067">
        <ele>625</ele>
        <time>2018-02-22T19:45:19Z</time>
      </trkpt>
      <trkpt lat="46.30786" lon="6.34058">
        <ele>627</ele>
        <time>2018-02-22T19:45:28Z</time>
      </trkpt>
      <trkpt lat="46.30762" lon="6.34047">
        <ele>627</ele>
        <time>2018-02-22T19:45:44Z</time>
      </trkpt>
      <trkpt lat="46.30737" lon="6.34042">
        <ele>626</ele>
        <time>2018-02-22T19:45:50Z</time>
      </trkpt>
      <trkpt lat="46.30716" lon="6.34033">
        <ele>626</ele>
        <time>2018-02-22T19:46:02Z</time>
      </trkpt>
      <trkpt lat="46.30702" lon="6.34019">
        <ele>626</ele>
        <time>2018-02-22T19:46:12Z</time>
      </trkpt>
      <trkpt lat="46.30687" lon="6.33993">
        <ele>626</ele>
        <time>2018-02-22T19:46:30Z</time>
      </trkpt>
      <trkpt lat="46.30669" lon="6.33956">
        <ele>623</ele>
        <time>2018-02-22T19:46:35Z</time>
      </trkpt>
      <trkpt lat="46.30648" lon="6.33922">
        <ele>619</ele>
        <time>2018-02-22T19:46:43Z</time>
      </trkpt>
      <trkpt lat="46.30625" lon="6.33893">
        <ele>617</ele>
        <time>2018-02-22T19:46:48Z</time>
      </trkpt>
      <trkpt lat="46.30616" lon="6.33872">
        <ele>617</ele>
        <time>2018-02-22T19:47:02Z</time>
      </trkpt>
      <trkpt lat="46.30608" lon="6.33829">
        <ele>617</ele>
        <time>2018-02-22T19:47:09Z</time>
      </trkpt>
      <trkpt lat="46.30591" lon="6.33782">
        <ele>619</ele>
        <time>2018-02-22T19:47:14Z</time>
      </trkpt>
      <trkpt lat="46.30551" lon="6.33687">
        <ele>621</ele>
        <time>2018-02-22T19:47:19Z</time>
      </trkpt>
      <trkpt lat="46.30518" lon="6.33601">
        <ele>622</ele>
        <time>2018-02-22T19:47:23Z</time>
      </trkpt>
      <trkpt lat="46.30512" lon="6.33559">
        <ele>622</ele>
        <time>2018-02-22T19:47:35Z</time>
      </trkpt>
      <trkpt lat="46.30509" lon="6.33499">
        <ele>621</ele>
        <time>2018-02-22T19:47:47Z</time>
      </trkpt>
      <trkpt lat="46.30506" lon="6.33479">
        <ele>621</ele>
        <time>2018-02-22T19:48:05Z</time>
      </trkpt>
      <trkpt lat="46.30494" lon="6.33445">
        <ele>620</ele>
        <time>2018-02-22T19:48:13Z</time>
      </trkpt>
      <trkpt lat="46.3046" lon="6.33382">
        <ele>620</ele>
        <time>2018-02-22T19:48:25Z</time>
      </trkpt>
      <trkpt lat="46.30423" lon="6.33334">
        <ele>619</ele>
        <time>2018-02-22T19:48:45Z</time>
      </trkpt>
      <trkpt lat="46.30385" lon="6.333">
        <ele>619</ele>
        <time>2018-02-22T19:48:57Z</time>
      </trkpt>
      <trkpt lat="46.30377" lon="6.33291">
        <ele>618</ele>
        <time>2018-02-22T19:49:04Z</time>
      </trkpt>
      <trkpt lat="46.30369" lon="6.33277">
        <ele>617</ele>
        <time>2018-02-22T19:49:07Z</time>
      </trkpt>
      <trkpt lat="46.30344" lon="6.33209">
        <ele>617</ele>
        <time>2018-02-22T19:49:18Z</time>
      </trkpt>
      <trkpt lat="46.30334" lon="6.33184">
        <ele>617</ele>
        <time>2018-02-22T19:49:20Z</time>
      </trkpt>
      <trkpt lat="46.30322" lon="6.33165">
        <ele>616</ele>
        <time>2018-02-22T19:49:26Z</time>
      </trkpt>
      <trkpt lat="46.30277" lon="6.33125">
        <ele>614</ele>
        <time>2018-02-22T19:49:41Z</time>
      </trkpt>
      <trkpt lat="46.30254" lon="6.33106">
        <ele>611</ele>
        <time>2018-02-22T19:49:48Z</time>
      </trkpt>
      <trkpt lat="46.30201" lon="6.33073">
        <ele>610</ele>
        <time>2018-02-22T19:50:08Z</time>
      </trkpt>
      <trkpt lat="46.30165" lon="6.3306">
        <ele>608</ele>
        <time>2018-02-22T19:50:12Z</time>
      </trkpt>
      <trkpt lat="46.30129" lon="6.33048">
        <ele>605</ele>
        <time>2018-02-22T19:50:24Z</time>
      </trkpt>
      <trkpt lat="46.30053" lon="6.32995">
        <ele>603</ele>
        <time>2018-02-22T19:50:32Z</time>
      </trkpt>
      <trkpt lat="46.30016" lon="6.32966">
        <ele>601</ele>
        <time>2018-02-22T19:50:50Z</time>
      </trkpt>
      <trkpt lat="46.29997" lon="6.32945">
        <ele>599</ele>
        <time>2018-02-22T19:51:01Z</time>
      </trkpt>
      <trkpt lat="46.29952" lon="6.32882">
        <ele>598</ele>
        <time>2018-02-22T19:51:06Z</time>
      </trkpt>
      <trkpt lat="46.29938" lon="6.3287">
        <ele>595</ele>
        <time>2018-02-22T19:51:19Z</time>
      </trkpt>
      <trkpt lat="46.29916" lon="6.32858">
        <ele>594</ele>
        <time>2018-02-22T19:51:31Z</time>
      </trkpt>
      <trkpt lat="46.29891" lon="6.32844">
        <ele>592</ele>
        <time>2018-02-22T19:51:38Z</time>
      </trkpt>
      <trkpt lat="46.29876" lon="6.32837">
        <ele>591</ele>
        <time>2018-02-22T19:51:53Z</time>
      </trkpt>
      <trkpt lat="46.29876" lon="6.32842">
        <ele>591</ele>
        <time>2018-02-22T19:52:02Z</time>
      </trkpt>
      <trkpt lat="46.29874" lon="6.3285">
        <ele>591</ele>
        <time>2018-02-22T19:52:14Z</time>
      </trkpt>
      <trkpt lat="46.29857" lon="6.3287">
        <ele>592</ele>
        <time>2018-02-22T19:52:31Z</time>
      </trkpt>
      <trkpt lat="46.2984" lon="6.32888">
        <ele>592</ele>
        <time>2018-02-22T19:52:43Z</time>
      </trkpt>
      <trkpt lat="46.29801" lon="6.32915">
        <ele>592</ele>
        <time>2018-02-22T19:52:49Z</time>
      </trkpt>
      <trkpt lat="46.29788" lon="6.32923">
        <ele>592</ele>
        <time>2018-02-22T19:52:51Z</time>
      </trkpt>
      <trkpt lat="46.29827" lon="6.32897">
        <ele>592</ele>
        <time>2018-02-22T19:52:57Z</time>
      </trkpt>
      <trkpt lat="46.2985" lon="6.32878">
        <ele>592</ele>
        <time>2018-02-22T19:53:11Z</time>
      </trkpt>
      <trkpt lat="46.29872" lon="6.32852">
        <ele>591</ele>
        <time>2018-02-22T19:53:26Z</time>
      </trkpt>
      <trkpt lat="46.29876" lon="6.32837">
        <ele>591</ele>
        <time>2018-02-22T19:53:44Z</time>
      </trkpt>
      <trkpt lat="46.29876" lon="6.3279">
        <ele>590</ele>
        <time>2018-02-22T19:54:00Z</time>
      </trkpt>
      <trkpt lat="46.29876" lon="6.32763">
        <ele>589</ele>
        <time>2018-02-22T19:54:17Z</time>
      </trkpt>
      <trkpt lat="46.29863" lon="6.3276">
        <ele>587</ele>
        <time>2018-02-22T19:54:20Z</time>
      </trkpt>
      <trkpt lat="46.29804" lon="6.3274">
        <ele>585</ele>
        <time>2018-02-22T19:54:38Z</time>
      </trkpt>
      <trkpt lat="46.29765" lon="6.32724">
        <ele>583</ele>
        <time>2018-02-22T19:54:43Z</time>
      </trkpt>
      <trkpt lat="46.29725" lon="6.32712">
        <ele>580</ele>
        <time>2018-02-22T19:54:48Z</time>
      </trkpt>
      <trkpt lat="46.29646" lon="6.32688">
        <ele>578</ele>
        <time>2018-02-22T19:55:02Z</time>
      </trkpt>
      <trkpt lat="46.29622" lon="6.32684">
        <ele>577</ele>
        <time>2018-02-22T19:55:11Z</time>
      </trkpt>
      <trkpt lat="46.29579" lon="6.32682">
        <ele>578</ele>
        <time>2018-02-22T19:55:19Z</time>
      </trkpt>
      <trkpt lat="46.295" lon="6.32684">
        <ele>578</ele>
        <time>2018-02-22T19:55:21Z</time>
      </trkpt>
      <trkpt lat="46.29418" lon="6.32685">
        <ele>578</ele>
        <time>2018-02-22T19:55:41Z</time>
      </trkpt>
      <trkpt lat="46.29397" lon="6.32684">
        <ele>578</ele>
        <time>2018-02-22T19:55:47Z</time>
      </trkpt>
      <trkpt lat="46.29387" lon="6.3268">
        <ele>577</ele>
        <time>2018-02-22T19:56:05Z</time>
      </trkpt>
      <trkpt lat="46.2937" lon="6.32673">
        <ele>577</ele>
        <time>2018-02-22T19:56:25Z</time>
      </trkpt>
      <trkpt lat="46.29315" lon="6.32639">
        <ele>577</ele>
        <time>2018-02-22T19:56:45Z</time>
      </trkpt>
      <trkpt lat="46.29258" lon="6.32609">
        <ele>578</ele>
        <time>2018-02-22T19:56:52Z</time>
      </trkpt>
      <trkpt lat="46.29226" lon="6.32599">
        <ele>579</ele>
        <time>2018-02-22T19:56:59Z</time>
      </trkpt>
      <trkpt lat="46.29177" lon="6.32594">
        <ele>580</ele>
        <time>2018-02-22T19:57:05Z</time>
      </trkpt>
      <trkpt lat="46.29152" lon="6.32591">
        <ele>581</ele>
        <time>2018-02-22T19:57:08Z</time>
      </trkpt>
      <trkpt lat="46.29116" lon="6.32578">
        <ele>582</ele>
        <time>2018-02-22T19:57:13Z</time>
      </trkpt>
      <trkpt lat="46.29085" lon="6.32567">
        <ele>583</ele>
        <time>2018-02-22T19:57:21Z</time>
      </trkpt>
      <trkpt lat="46.29055" lon="6.32559">
        <ele>584</ele>
        <time>2018-02-22T19:57:36Z</time>
      </trkpt>
      <trkpt lat="46.29016" lon="6.32557">
        <ele>584</ele>
        <time>2018-02-22T19:57:41Z</time>
      </trkpt>
      <trkpt lat="46.2898" lon="6.32559">
        <ele>586</ele>
        <time>2018-02-22T19:57:55Z</time>
      </trkpt>
      <trkpt lat="46.2895" lon="6.32567">
        <ele>587</ele>
        <time>2018-02-22T19:58:08Z</time>
      </trkpt>
      <trkpt lat="46.2892" lon="6.32575">
        <ele>589</ele>
        <time>2018-02-22T19:58:26Z</time>
      </trkpt>
      <trkpt lat="46.28905" lon="6.32576">
        <ele>590</ele>
        <time>2018-02-22T19:58:31Z</time>
      </trkpt>
      <trkpt lat="46.28899" lon="6.32575">
        <ele>591</ele>
        <time>2018-02-22T19:58:33Z</time>
      </trkpt>
      <trkpt lat="46.28887" lon="6.32569">
        <ele>591</ele>
        <time>2018-02-22T19:58:41Z</time>
      </trkpt>
      <trkpt lat="46.28881" lon="6.32565">
        <ele>591</ele>
        <time>2018-02-22T19:58:51Z</time>
      </trkpt>
      <trkpt lat="46.28877" lon="6.32569">
        <ele>591</ele>
        <time>2018-02-22T19:59:10Z</time>
      </trkpt>
      <trkpt lat="46.28871" lon="6.32572">
        <ele>592</ele>
        <time>2018-02-22T19:59:26Z</time>
      </trkpt>
      <trkpt lat="46.28865" lon="6.32574">
        <ele>593</ele>
        <time>2018-02-22T19:59:45Z</time>
      </trkpt>
      <trkpt lat="46.28851" lon="6.32572">
        <ele>594</ele>
        <time>2018-02-22T19:59:57Z</time>
      </trkpt>
      <trkpt lat="46.28828" lon="6.32566">
        <ele>594</ele>
        <time>2018-02-22T20:00:02Z</time>
      </trkpt>
      <trkpt lat="46.28739" lon="6.32529">
        <ele>593</ele>
        <time>2018-02-22T20:00:13Z</time>
      </trkpt>
      <trkpt lat="46.28715" lon="6.3252">
        <ele>593</ele>
        <time>2018-02-22T20:00:32Z</time>
      </trkpt>
      <trkpt lat="46.28698" lon="6.32517">
        <ele>593</ele>
        <time>2018-02-22T20:00:36Z</time>
      </trkpt>
      <trkpt lat="46.28673" lon="6.32518">
        <ele>592</ele>
        <time>2018-02-22T20:00:50Z</time>
      </trkpt>
      <trkpt lat="46.2865" lon="6.32516">
        <ele>592</ele>
        <time>2018-02-22T20:01:08Z</time>
      </trkpt>
      <trkpt lat="46.28644" lon="6.32515">
        <ele>592</ele>
        <time>2018-02-22T20:01:18Z</time>
      </trkpt>
      <trkpt lat="46.2864" lon="6.32535">
        <ele>594</ele>
        <time>2018-02-22T20:01:23Z</time>
      </trkpt>
      <trkpt lat="46.28611" lon="6.3268">
        <ele>595</ele>
        <time>2018-02-22T20:01:40Z</time>
      </trkpt>
      <trkpt lat="46.28606" lon="6.32699">
        <ele>596</ele>
        <time>2018-02-22T20:01:58Z</time>
      </trkpt>
      <trkpt lat="46.28597" lon="6.32722">
        <ele>596</ele>
        <time>2018-02-22T20:02:00Z</time>
      </trkpt>
      <trkpt lat="46.2859" lon="6.32734">
        <ele>595</ele>
        <time>2018-02-22T20:02:19Z</time>
      </trkpt>
      <trkpt lat="46.28498" lon="6.32843">
        <ele>600</ele>
        <time>2018-02-22T20:02:38Z</time>
      </trkpt>
      <trkpt lat="46.28291" lon="6.33087">
        <ele>602</ele>
        <time>2018-02-22T20:02:43Z</time>
      </trkpt>
      <trkpt lat="46.28183" lon="6.33217">
        <ele>605</ele>
        <time>2018-02-22T20:03:00Z</time>
      </trkpt>
      <trkpt lat="46.2815" lon="6.33258">
        <ele>599</ele>
        <time>2018-02-22T20:03:19Z</time>
      </trkpt>
      <trkpt lat="46.28008" lon="6.3343">
        <ele>591</ele>
        <time>2018-02-22T20:03:34Z</time>
      </trkpt>
      <trkpt lat="46.27925" lon="6.33523">
        <ele>583</ele>
        <time>2018-02-22T20:03:46Z</time>
      </trkpt>
      <trkpt lat="46.27877" lon="6.33575">
        <ele>578</ele>
        <time>2018-02-22T20:03:55Z</time>
      </trkpt>
      <trkpt lat="46.27771" lon="6.33688">
        <ele>574</ele>
        <time>2018-02-22T20:04:07Z</time>
      </trkpt>
      <trkpt lat="46.27607" lon="6.33863">
        <ele>569</ele>
        <time>2018-02-22T20:04:20Z</time>
      </trkpt>
      <trkpt lat="46.27412" lon="6.34068">
        <ele>563</ele>
        <time>2018-02-22T20:04:26Z</time>
      </trkpt>
      <trkpt lat="46.27348" lon="6.34136">
        <ele>558</ele>
        <time>2018-02-22T20:04:32Z</time>
      </trkpt>
      <trkpt lat="46.27305" lon="6.34183">
        <ele>557</ele>
        <time>2018-02-22T20:04:35Z</time>
      </trkpt>
      <trkpt lat="46.27284" lon="6.34208">
        <ele>556</ele>
        <time>2018-02-22T20:04:48Z</time>
      </trkpt>
      <trkpt lat="46.27206" lon="6.34289">
        <ele>555</ele>
        <time>2018-02-22T20:05:03Z</time>
      </trkpt>
      <trkpt lat="46.27179" lon="6.34308">
        <ele>553</ele>
        <time>2018-02-22T20:05:23Z</time>
      </trkpt>
      <trkpt lat="46.27139" lon="6.34326">
        <ele>550</ele>
        <time>2018-02-22T20:05:30Z</time>
      </trkpt>
      <trkpt lat="46.27082" lon="6.34353">
        <ele>550</ele>
        <time>2018-02-22T20:05:46Z</time>
      </trkpt>
      <trkpt lat="46.27066" lon="6.34366">
        <ele>550</ele>
        <time>2018-02-22T20:05:59Z</time>
      </trkpt>
      <trkpt lat="46.27036" lon="6.34395">
        <ele>552</ele>
        <time>2018-02-22T20:06:04Z</time>
      </trkpt>
      <trkpt lat="46.26991" lon="6.34445">
        <ele>553</ele>
        <time>2018-02-22T20:06:15Z</time>
      </trkpt>
      <trkpt lat="46.26981" lon="6.34452">
        <ele>553</ele>
        <time>2018-02-22T20:06:31Z</time>
      </trkpt>
      <trkpt lat="46.2697" lon="6.34456">
        <ele>554</ele>
        <time>2018-02-22T20:06:34Z</time>
      </trkpt>
      <trkpt lat="46.26959" lon="6.34456">
        <ele>554</ele>
        <time>2018-02-22T20:06:36Z</time>
      </trkpt>
      <trkpt lat="46.2695" lon="6.34451">
        <ele>555</ele>
        <time>2018-02-22T20:06:39Z</time>
      </trkpt>
      <trkpt lat="46.26921" lon="6.34406">
        <ele>555</ele>
        <time>2018-02-22T20:06:44Z</time>
      </trkpt>
      <trkpt lat="46.26912" lon="6.34392">
        <ele>556</ele>
        <time>2018-02-22T20:07:04Z</time>
      </trkpt>
      <trkpt lat="46.26905" lon="6.34386">
        <ele>557</ele>
        <time>2018-02-22T20:07:12Z</time>
      </trkpt>
      <trkpt lat="46.26896" lon="6.34386">
        <ele>557</ele>
        <time>2018-02-22T20:07:26Z</time>
      </trkpt>
      <trkpt lat="46.26889" lon="6.34392">
        <ele>557</ele>
        <time>2018-02-22T20:07:42Z</time>
      </trkpt>
      <trkpt lat="46.26877" lon="6.34409">
        <ele>558</ele>
        <time>2018-02-22T20:07:58Z</time>
      </trkpt>
      <trkpt lat="46.26862" lon="6.34424">
        <ele>558</ele>
        <time>2018-02-22T20:08:11Z</time>
      </trkpt>
      <trkpt lat="46.26846" lon="6.34437">
        <ele>559</ele>
        <time>2018-02-22T20:08:29Z</time>
      </trkpt>
      <trkpt lat="46.26836" lon="6.34441">
        <ele>560</ele>
        <time>2018-02-22T20:08:45Z</time>
      </trkpt>
      <trkpt lat="46.26825" lon="6.34441">
        <ele>560</ele>
        <time>2018-02-22T20:09:04Z</time>
      </trkpt>
      <trkpt lat="46.26806" lon="6.34434">
        <ele>561</ele>
        <time>2018-02-22T20:09:21Z</time>
      </trkpt>
      <trkpt lat="46.26796" lon="6.34433">
        <ele>561</ele>
        <time>2018-02-22T20:09:31Z</time>
      </trkpt>
      <trkpt lat="46.26788" lon="6.34435">
        <ele>561</ele>
        <time>2018-02-22T20:09:34Z</time>
      </trkpt>
      <trkpt lat="46.26778" lon="6.34443">
        <ele>561</ele>
        <time>2018-02-22T20:09:40Z</time>
      </trkpt>
      <trkpt lat="46.26736" lon="6.34497">
        <ele>562</ele>
        <time>2018-02-22T20:09:51Z</time>
      </trkpt>
      <trkpt lat="46.26721" lon="6.34516">
        <ele>563</ele>
        <time>2018-02-22T20:09:56Z</time>
      </trkpt>
      <trkpt lat="46.2672" lon="6.34521">
        <ele>564</ele>
        <time>2018-02-22T20:10:05Z</time>
      </trkpt>
      <trkpt lat="46.26703" lon="6.34518">
        <ele>565</ele>
        <time>2018-02-22T20:10:14Z</time>
      </trkpt>
      <trkpt lat="46.26677" lon="6.34513">
        <ele>566</ele>
        <time>2018-02-22T20:10:25Z</time>
      </trkpt>
      <trkpt lat="46.26668" lon="6.34531">
        <ele>565</ele>
        <time>2018-02-22T20:10:34Z</time>
      </trkpt>
      <trkpt lat="46.26659" lon="6.34552">
        <ele>562</ele>
        <time>2018-02-22T20:10:52Z</time>
      </trkpt>
      <trkpt lat="46.26642" lon="6.34611">
        <ele>556</ele>
        <time>2018-02-22T20:11:10Z</time>
      </trkpt>
      <trkpt lat="46.2663" lon="6.34652">
        <ele>551</ele>
        <time>2018-02-22T20:11:21Z</time>
      </trkpt>
      <trkpt lat="46.26611" lon="6.34679">
        <ele>549</ele>
        <time>2018-02-22T20:11:38Z</time>
      </trkpt>
      <trkpt lat="46.26609" lon="6.34684">
        <ele>548</ele>
        <time>2018-02-22T20:11:58Z</time>
      </trkpt>
      <trkpt lat="46.26608" lon="6.3469">
        <ele>547</ele>
        <time>2018-02-22T20:12:13Z</time>
      </trkpt>
      <trkpt lat="46.26604" lon="6.3469">
        <ele>546</ele>
        <time>2018-02-22T20:12:22Z</time>
      </trkpt>
      <trkpt lat="46.26589" lon="6.34701">
        <ele>545</ele>
        <time>2018-02-22T20:12:30Z</time>
      </trkpt>
      <trkpt lat="46.26581" lon="6.34716">
        <ele>544</ele>
        <time>2018-02-22T20:12:50Z</time>
      </trkpt>
      <trkpt lat="46.26567" lon="6.3475">
        <ele>543</ele>
        <time>2018-02-22T20:12:56Z</time>
      </trkpt>
      <trkpt lat="46.26561" lon="6.34768">
        <ele>542</ele>
        <time>2018-02-22T20:13:09Z</time>
      </trkpt>
      <trkpt lat="46.26557" lon="6.34786">
        <ele>542</ele>
        <time>2018-02-22T20:13:25Z</time>
      </trkpt>
      <trkpt lat="46.26557" lon="6.34842">
        <ele>542</ele>
        <time>2018-02-22T20:13:44Z</time>
      </trkpt>
      <trkpt lat="46.26556" lon="6.34866">
        <ele>542</ele>
        <time>2018-02-22T20:13:49Z</time>
      </trkpt>
      <trkpt lat="46.26552" lon="6.34884">
        <ele>543</ele>
        <time>2018-02-22T20:13:58Z</time>
      </trkpt>
      <trkpt lat="46.26522" lon="6.34981">
        <ele>545</ele>
        <time>2018-02-22T20:14:09Z</time>
      </trkpt>
      <trkpt lat="46.26475" lon="6.35133">
        <ele>547</ele>
        <time>2018-02-22T20:14:16Z</time>
      </trkpt>
      <trkpt lat="46.26466" lon="6.35152">
        <ele>549</ele>
        <time>2018-02-22T20:14:25Z</time>
      </trkpt>
      <trkpt lat="46.26458" lon="6.35164">
        <ele>550</ele>
        <time>2018-02-22T20:14:43Z</time>
      </trkpt>
      <trkpt lat="46.2644" lon="6.35183">
        <ele>552</ele>
        <time>2018-02-22T20:14:48Z</time>
      </trkpt>
      <trkpt lat="46.26384" lon="6.35228">
        <ele>555</ele>
        <time>2018-02-22T20:14:53Z</time>
      </trkpt>
      <trkpt lat="46.2635" lon="6.35261">
        <ele>559</ele>
        <time>2018-02-22T20:15:06Z</time>
      </trkpt>
      <trkpt lat="46.26291" lon="6.35337">
        <ele>562</ele>
        <time>2018-02-22T20:15:17Z</time>
      </trkpt>
      <trkpt lat="46.26267" lon="6.3537">
        <ele>565</ele>
        <time>2018-02-22T20:15:19Z</time>
      </trkpt>
      <trkpt lat="46.26259" lon="6.35386">
        <ele>567</ele>
        <time>2018-02-22T20:15:22Z</time>
      </trkpt>
      <trkpt lat="46.26237" lon="6.35462">
        <ele>569</ele>
        <time>2018-02-22T20:15:34Z</time>
      </trkpt>
      <trkpt lat="46.26207" lon="6.35567">
        <ele>572</ele>
        <time>2018-02-22T20:15:48Z</time>
      </trkpt>
      <trkpt lat="46.26192" lon="6.35635">
        <ele>574</ele>
        <time>2018-02-22T20:16:03Z</time>
      </trkpt>
      <trkpt lat="46.26188" lon="6.35647">
        <ele>575</ele>
        <time>2018-02-22T20:16:11Z</time>
      </trkpt>
      <trkpt lat="46.26182" lon="6.35653">
        <ele>576</ele>
        <time>2018-02-22T20:16:19Z</time>
      </trkpt>
      <trkpt lat="46.26179" lon="6.35655">
        <ele>576</ele>
        <time>2018-02-22T20:16:23Z</time>
      </trkpt>
      <trkpt lat="46.26175" lon="6.35647">
        <ele>576</ele>
        <time>2018-02-22T20:16:36Z</time>
      </trkpt>
      <trkpt lat="46.26163" lon="6.35628">
        <ele>577</ele>
        <time>2018-02-22T20:16:40Z</time>
      </trkpt>
      <trkpt lat="46.26142" lon="6.35602">
        <ele>579</ele>
        <time>2018-02-22T20:16:56Z</time>
      </trkpt>
      <trkpt lat="46.26087" lon="6.35549">
        <ele>580</ele>
        <time>2018-02-22T20:17:01Z</time>
      </trkpt>
      <trkpt lat="46.2607" lon="6.35537">
        <ele>582</ele>
        <time>2018-02-22T20:17:21Z</time>
      </trkpt>
      <trkpt lat="46.26058" lon="6.35527">
        <ele>583</ele>
        <time>2018-02-22T20:17:34Z</time>
      </trkpt>
      <trkpt lat="46.2605" lon="6.35513">
        <ele>584</ele>
        <time>2018-02-22T20:17:37Z</time>
      </trkpt>
      <trkpt lat="46.26043" lon="6.35495">
        <ele>584</ele>
        <time>2018-02-22T20:17:42Z</time>
      </trkpt>
      <trkpt lat="46.26041" lon="6.35478">
        <ele>585</ele>
        <time>2018-02-22T20:17:50Z</time>
      </trkpt>
      <trkpt lat="46.2604" lon="6.35455">
        <ele>586</ele>
        <time>2018-02-22T20:18:04Z</time>
      </trkpt>
      <trkpt lat="46.26043" lon="6.35438">
        <ele>587</ele>
        <time>2018-02-22T20:18:15Z</time>
      </trkpt>
      <trkpt lat="46.26056" lon="6.35409">
        <ele>588</ele>
        <time>2018-02-22T20:18:18Z</time>
      </trkpt>
      <trkpt lat="46.2608" lon="6.35376">
        <ele>589</ele>
        <time>2018-02-22T20:18:22Z</time>
      </trkpt>
      <trkpt lat="46.26089" lon="6.3536">
        <ele>590</ele>
        <time>2018-02-22T20:18:28Z</time>
      </trkpt>
      <trkpt lat="46.26094" lon="6.35342">
        <ele>591</ele>
        <time>2018-02-22T20:18:45Z</time>
      </trkpt>
      <trkpt lat="46.26097" lon="6.35319">
        <ele>592</ele>
        <time>2018-02-22T20:18:54Z</time>
      </trkpt>
      <trkpt lat="46.26098" lon="6.35305">
        <ele>592</ele>
        <time>2018-02-22T20:19:09Z</time>
      </trkpt>
      <trkpt lat="46.26095" lon="6.3528">
        <ele>593</ele>
        <time>2018-02-22T20:19:22Z</time>
      </trkpt>
      <trkpt lat="46.26094" lon="6.35248">
        <ele>594</ele>
        <time>2018-02-22T20:19:35Z</time>
      </trkpt>
      <trkpt lat="46.26097" lon="6.35225">
        <ele>594</ele>
        <time>2018-02-22T20:19:53Z</time>
      </trkpt>
      <trkpt lat="46.26098" lon="6.35203">
        <ele>595</ele>
        <time>2018-02-22T20:20:04Z</time>
      </trkpt>
      <trkpt lat="46.26083" lon="6.35114">
        <ele>594</ele>
        <time>2018-02-22T20:20:13Z</time>
      </trkpt>
      <trkpt lat="46.26061" lon="6.34996">
        <ele>593</ele>
        <time>2018-02-22T20:20:16Z</time>
      </trkpt>
      <trkpt lat="46.26055" lon="6.34928">
        <ele>592</ele>
        <time>2018-02-22T20:20:20Z</time>
      </trkpt>
      <trkpt lat="46.26048" lon="6.34888">
        <ele>590</ele>
        <time>2018-02-22T20:20:37Z</time>
      </trkpt>
      <trkpt lat="46.26026" lon="6.34792">
        <ele>589</ele>
        <time>2018-02-22T20:20:42Z</time>
      </trkpt>
      <trkpt lat="46.25997" lon="6.34707">
        <ele>587</ele>
        <time>2018-02-22T20:20:49Z</time>
      </trkpt>
      <trkpt lat="46.25971" lon="6.34638">
        <ele>586</ele>
        <time>2018-02-22T20:21:07Z</time>
      </trkpt>
      <trkpt lat="46.2595" lon="6.34571">
        <ele>585</ele>
        <time>2018-02-22T20:21:19Z</time>
      </trkpt>
      <trkpt lat="46.25942" lon="6.34536">
        <ele>585</ele>
        <time>2018-02-22T20:21:37Z</time>
      </trkpt>
      <trkpt lat="46.25903" lon="6.34326">
        <ele>585</ele>
        <time>2018-02-22T20:21:57Z</time>
      </trkpt>
      <trkpt lat="46.25886" lon="6.34227">
        <ele>585</ele>
        <time>2018-02-22T20:22:11Z</time>
      </trkpt>
      <trkpt lat="46.25865" lon="6.3415">
        <ele>585</ele>
        <time>2018-02-22T20:22:27Z</time>
      </trkpt>
      <trkpt lat="46.25818" lon="6.3404">
        <ele>583</ele>
        <time>2018-02-22T20:22:35Z</time>
      </trkpt>
      <trkpt lat="46.2572" lon="6.33834">
        <ele>581</ele>
        <time>2018-02-22T20:22:55Z</time>
      </trkpt>
      <trkpt lat="46.25734" lon="6.33816">
        <ele>579</ele>
        <time>2018-02-22T20:22:57Z</time>
      </trkpt>
      <trkpt lat="46.2574" lon="6.33789">
        <ele>578</ele>
        <time>2018-02-22T20:23:08Z</time>
      </trkpt>
      <trkpt lat="46.25751" lon="6.33716">
        <ele>577</ele>
        <time>2018-02-22T20:23:28Z</time>
      </trkpt>
      <trkpt lat="46.25758" lon="6.3363">
        <ele>575</ele>
        <time>2018-02-22T20:23:33Z</time>
      </trkpt>
      <trkpt lat="46.25757" lon="6.33606">
        <ele>574</ele>
        <time>2018-02-22T20:23:52Z</time>
      </trkpt>
      <trkpt lat="46.25752" lon="6.3358">
        <ele>573</ele>
        <time>2018-02-22T20:24:05Z</time>
      </trkpt>
      <trkpt lat="46.25737" lon="6.33538">
        <ele>571</ele>
        <time>2018-02-22T20:24:11Z</time>
      </trkpt>
      <trkpt lat="46.25704" lon="6.33491">
        <ele>567</ele>
        <time>2018-02-22T20:24:20Z</time>
      </trkpt>
      <trkpt lat="46.25635" lon="6.334">
        <ele>564</ele>
        <time>2018-02-22T20:24:39Z</time>
      </trkpt>
      <trkpt lat="46.25602" lon="6.33367">
        <ele>560</ele>
        <time>2018-02-22T20:24:59Z</time>
      </trkpt>
      <trkpt lat="46.25585" lon="6.33357">
        <ele>559</ele>
        <time>2018-02-22T20:25:04Z</time>
      </trkpt>
      <trkpt lat="46.25568" lon="6.33352">
        <ele>557</ele>
        <time>2018-02-22T20:25:23Z</time>
      </trkpt>
      <trkpt lat="46.25524" lon="6.3335">
        <ele>555</ele>
        <time>2018-02-22T20:25:30Z</time>
      </trkpt>
      <trkpt lat="46.25472" lon="6.33348">
        <ele>552</ele>
        <time>2018-02-22T20:25:34Z</time>
      </trkpt>
      <trkpt lat="46.2542" lon="6.33338">
        <ele>549</ele>
        <time>2018-02-22T20:25:37Z</time>
      </trkpt>
      <trkpt lat="46.25373" lon="6.3332">
        <ele>547</ele>
        <time>2018-02-22T20:25:45Z</time>
      </trkpt>
      <trkpt lat="46.25342" lon="6.33304">
        <ele>544</ele>
        <time>2018-02-22T20:25:47Z</time>
      </trkpt>
      <trkpt lat="46.25297" lon="6.33274">
        <ele>542</ele>
        <time>2018-02-22T20:25:59Z</time>
      </trkpt>
      <trkpt lat="46.2527" lon="6.33252">
        <ele>540</ele>
        <time>2018-02-22T20:26:16Z</time>
      </trkpt>
      <trkpt lat="46.25245" lon="6.33226">
        <ele>539</ele>
        <time>2018-02-22T20:26:33Z</time>
      </trkpt>
      <trkpt lat="46.25224" lon="6.33203">
        <ele>538</ele>
        <time>2018-02-22T20:26:47Z</time>
      </trkpt>
      <trkpt lat="46.25213" lon="6.33188">
        <ele>537</ele>
        <time>2018-02-22T20:26:57Z</time>
      </trkpt>
      <trkpt lat="46.25206" lon="6.33174">
        <ele>537</ele>
        <time>2018-02-22T20:27:02Z</time>
      </trkpt>
      <trkpt lat="46.25201" lon="6.33164">
        <ele>536</ele>
        <time>2018-02-22T20:27:15Z</time>
      </trkpt>
      <trkpt lat="46.25197" lon="6.33159">
        <ele>536</ele>
        <time>2018-02-22T20:27:24Z</time>
      </trkpt>
      <trkpt lat="46.25179" lon="6.33159">
        <ele>535</ele>
        <time>2018-02-22T20:27:41Z</time>
      </trkpt>
      <trkpt lat="46.25163" lon="6.33155">
        <ele>534</ele>
        <time>2018-02-22T20:27:49Z</time>
      </trkpt>
      <trkpt lat="46.2515" lon="6.33143">
        <ele>533</ele>
        <time>2018-02-22T20:28:02Z</time>
      </trkpt>
      <trkpt lat="46.25146" lon="6.33135">
        <ele>533</ele>
        <time>2018-02-22T20:28:14Z</time>
      </trkpt>
      <trkpt lat="46.25138" lon="6.33119">
        <ele>532</ele>
        <time>2018-02-22T20:28:28Z</time>
      </trkpt>
      <trkpt lat="46.2513" lon="6.33099">
        <ele>531</ele>
        <time>2018-02-22T20:28:38Z</time>
      </trkpt>
      <trkpt lat="46.25124" lon="6.33072">
        <ele>529</ele>
        <time>2018-02-22T20:28:52Z</time>
      </trkpt>
      <trkpt lat="46.25121" lon="6.3305">
        <ele>528</ele>
        <time>2018-02-22T20:29:11Z</time>
      </trkpt>
      <trkpt lat="46.25118" lon="6.33013">
        <ele>526</ele>
        <time>2018-02-22T20:29:22Z</time>
      </trkpt>
      <trkpt lat="46.25123" lon="6.32927">
        <ele>525</ele>
        <time>2018-02-22T20:29:36Z</time>
      </trkpt>
      <trkpt lat="46.25126" lon="6.32907">
        <ele>525</ele>
        <time>2018-02-22T20:29:44Z</time>
      </trkpt>
      <trkpt lat="46.25134" lon="6.32877">
        <ele>525</ele>
        <time>2018-02-22T20:29:56Z</time>
      </trkpt>
      <trkpt lat="46.25145" lon="6.32821">
        <ele>525</ele>
        <time>2018-02-22T20:29:58Z</time>
      </trkpt>
      <trkpt lat="46.25148" lon="6.32788">
        <ele>526</ele>
        <time>2018-02-22T20:30:15Z</time>
      </trkpt>
      <trkpt lat="46.2514" lon="6.32782">
        <ele>526</ele>
        <time>2018-02-22T20:30:30Z</time>
      </trkpt>
      <trkpt lat="46.25114" lon="6.32778">
        <ele>527</ele>
        <time>2018-02-22T20:30:44Z</time>
      </trkpt>
      <trkpt lat="46.25084" lon="6.32766">
        <ele>527</ele>
        <time>2018-02-22T20:31:01Z</time>
      </trkpt>
      <trkpt lat="46.25035" lon="6.32736">
        <ele>527</ele>
        <time>2018-02-22T20:31:03Z</time>
      </trkpt>
      <trkpt lat="46.25018" lon="6.32723">
        <ele>527</ele>
        <time>2018-02-22T20:31:17Z</time>
      </trkpt>
      <trkpt lat="46.24998" lon="6.32702">
        <ele>526</ele>
        <time>2018-02-22T20:31:28Z</time>
      </trkpt>
      <trkpt lat="46.24992" lon="6.32694">
        <ele>526</ele>
        <time>2018-02-22T20:31:37Z</time>
      </trkpt>
      <trkpt lat="46.24977" lon="6.32656">
        <ele>526</ele>
        <time>2018-02-22T20:31:42Z</time>
      </trkpt>
      <trkpt lat="46.24972" lon="6.32617">
        <ele>527</ele>
        <time>2018-02-22T20:31:57Z</time>
      </trkpt>
      <trkpt lat="46.24973" lon="6.32608">
        <ele>527</ele>
        <time>2018-02-22T20:32:14Z</time>
      </trkpt>
      <trkpt lat="46.24976" lon="6.32584">
        <ele>528</ele>
        <time>2018-02-22T20:32:31Z</time>
      </trkpt>
      <trkpt lat="46.24986" lon="6.32544">
        <ele>529</ele>
        <time>2018-02-22T20:32:36Z</time>
      </trkpt>
      <trkpt lat="46.24991" lon="6.3252">
        <ele>530</ele>
        <time>2018-02-22T20:32:40Z</time>
      </trkpt>
      <trkpt lat="46.24993" lon="6.3248">
        <ele>531</ele>
        <time>2018-02-22T20:32:53Z</time>
      </trkpt>
      <trkpt lat="46.24988" lon="6.32448">
        <ele>533</ele>
        <time>2018-02-22T20:33:08Z</time>
      </trkpt>
      <trkpt lat="46.24974" lon="6.32407">
        <ele>534</ele>
        <time>2018-02-22T20:33:22Z</time>
      </trkpt>
      <trkpt lat="46.2494" lon="6.32307">
        <ele>533</ele>
        <time>2018-02-22T20:33:39Z</time>
      </trkpt>
      <trkpt lat="46.24925" lon="6.32256">
        <ele>531</ele>
        <time>2018-02-22T20:33:42Z</time>
      </trkpt>
      <trkpt lat="46.24923" lon="6.32222">
        <ele>530</ele>
        <time>2018-02-22T20:33:55Z</time>
      </trkpt>
      <trkpt lat="46.24923" lon="6.32195">
        <ele>530</ele>
        <time>2018-02-22T20:33:59Z</time>
      </trkpt>
      <trkpt lat="46.2492" lon="6.32098">
        <ele>530</ele>
        <time>2018-02-22T20:34:19Z</time>
      </trkpt>
      <trkpt lat="46.24916" lon="6.32066">
        <ele>530</ele>
        <time>2018-02-22T20:34:25Z</time>
      </trkpt>
      <trkpt lat="46.24876" lon="6.31913">
        <ele>530</ele>
        <time>2018-02-22T20:34:28Z</time>
      </trkpt>
      <trkpt lat="46.24858" lon="6.31852">
        <ele>529</ele>
        <time>2018-02-22T20:34:37Z</time>
      </trkpt>
      <trkpt lat="46.24829" lon="6.3177">
        <ele>526</ele>
        <time>2018-02-22T20:34:47Z</time>
      </trkpt>
      <trkpt lat="46.24779" lon="6.31629">
        <ele>522</ele>
        <time>2018-02-22T20:34:55Z</time>
      </trkpt>
      <trkpt lat="46.24748" lon="6.3155">
        <ele>521</ele>
        <time>2018-02-22T20:35:11Z</time>
      </trkpt>
      <trkpt lat="46.24737" lon="6.31529">
        <ele>520</ele>
        <time>2018-02-22T20:35:28Z</time>
      </trkpt>
      <trkpt lat="46.24673" lon="6.31426">
        <ele>519</ele>
        <time>2018-02-22T20:35:30Z</time>
      </trkpt>
      <trkpt lat="46.24628" lon="6.31356">
        <ele>519</ele>
        <time>2018-02-22T20:35:37Z</time>
      </trkpt>
      <trkpt lat="46.24599" lon="6.31309">
        <ele>519</ele>
        <time>2018-02-22T20:35:47Z</time>
      </trkpt>
      <trkpt lat="46.2457" lon="6.31282">
        <ele>519</ele>
        <time>2018-02-22T20:36:01Z</time>
      </trkpt>
      <trkpt lat="46.24513" lon="6.31241">
        <ele>518</ele>
        <time>2018-02-22T20:36:19Z</time>
      </trkpt>
      <trkpt lat="46.24502" lon="6.31226">
        <ele>517</ele>
        <time>2018-02-22T20:36:33Z</time>
      </trkpt>
      <trkpt lat="46.2444" lon="6.31122">
        <ele>516</ele>
        <time>2018-02-22T20:36:36Z</time>
      </trkpt>
      <trkpt lat="46.24391" lon="6.31043">
        <ele>515</ele>
        <time>2018-02-22T20:36:55Z</time>
      </trkpt>
      <trkpt lat="46.24382" lon="6.3103">
        <ele>514</ele>
        <time>2018-02-22T20:37:04Z</time>
      </trkpt>
      <trkpt lat="46.24368" lon="6.31012">
        <ele>515</ele>
        <time>2018-02-22T20:37:13Z</time>
      </trkpt>
      <trkpt lat="46.24294" lon="6.30964">
        <ele>516</ele>
        <time>2018-02-22T20:37:21Z</time>
      </trkpt>
      <trkpt lat="46.24274" lon="6.3095">
        <ele>517</ele>
        <time>2018-02-22T20:37:32Z</time>
      </trkpt>
      <trkpt lat="46.24246" lon="6.30922">
        <ele>517</ele>
        <time>2018-02-22T20:37:37Z</time>
      </trkpt>
      <trkpt lat="46.24221" lon="6.309">
        <ele>518</ele>
        <time>2018-02-22T20:37:51Z</time>
      </trkpt>
      <trkpt lat="46.24188" lon="6.30875">
        <ele>518</ele>
        <time>2018-02-22T20:38:00Z</time>
      </trkpt>
      <trkpt lat="46.24085" lon="6.30796">
        <ele>517</ele>
        <time>2018-02-22T20:38:13Z</time>
      </trkpt>
      <trkpt lat="46.23995" lon="6.30724">
        <ele>517</ele>
        <time>2018-02-22T20:38:29Z</time>
      </trkpt>
      <trkpt lat="46.2398" lon="6.30717">
        <ele>516</ele>
        <time>2018-02-22T20:38:49Z</time>
      </trkpt>
      <trkpt lat="46.23975" lon="6.30716">
        <ele>516</ele>
        <time>2018-02-22T20:38:53Z</time>
      </trkpt>
      <trkpt lat="46.2397" lon="6.3072">
        <ele>517</ele>
        <time>2018-02-22T20:39:06Z</time>
      </trkpt>
      <trkpt lat="46.23961" lon="6.30735">
        <ele>518</ele>
        <time>2018-02-22T20:39:09Z</time>
      </trkpt>
      <trkpt lat="46.2393" lon="6.30859">
        <ele>518</ele>
        <time>2018-02-22T20:39:29Z</time>
      </trkpt>
      <trkpt lat="46.23915" lon="6.30916">
        <ele>519</ele>
        <time>2018-02-22T20:39:33Z</time>
      </trkpt>
      <trkpt lat="46.23915" lon="6.30921">
        <ele>519</ele>
        <time>2018-02-22T20:39:47Z</time>
      </trkpt>
      <trkpt lat="46.23911" lon="6.3092">
        <ele>519</ele>
        <time>2018-02-22T20:39:50Z</time>
      </trkpt>
      <trkpt lat="46.23891" lon="6.30909">
        <ele>519</ele>
        <time>2018-02-22T20:39:53Z</time>
      </trkpt>
      <trkpt lat="46.23835" lon="6.30866">
        <ele>519</ele>
        <time>2018-02-22T20:39:57Z</time>
      </trkpt>
      <trkpt lat="46.238" lon="6.30839">
        <ele>519</ele>
        <time>2018-02-22T20:40:15Z</time>
      </trkpt>
      <trkpt lat="46.23779" lon="6.30826">
        <ele>519</ele>
        <time>2018-02-22T20:40:25Z</time>
      </trkpt>
      <trkpt lat="46.23755" lon="6.30821">
        <ele>519</ele>
        <time>2018-02-22T20:40:40Z</time>
      </trkpt>
      <trkpt lat="46.23733" lon="6.30816">
        <ele>519</ele>
        <time>2018-02-22T20:40:47Z</time>
      </trkpt>
      <trkpt lat="46.23704" lon="6.308">
        <ele>519</ele>
        <time>2018-02-22T20:41:07Z</time>
      </trkpt>
      <trkpt lat="46.23676" lon="6.30781">
        <ele>519</ele>
        <time>2018-02-22T20:41:20Z</time>
      </trkpt>
      <trkpt lat="46.23661" lon="6.30776">
        <ele>519</ele>
        <time>2018-02-22T20:41:31Z</time>
      </trkpt>
      <trkpt lat="46.23638" lon="6.30771">
        <ele>519</ele>
        <time>2018-02-22T20:41:51Z</time>
      </trkpt>
      <trkpt lat="46.23612" lon="6.3076">
        <ele>518</ele>
        <time>2018-02-22T20:42:07Z</time>
      </trkpt>
      <trkpt lat="46.23565" lon="6.30739">
        <ele>518</ele>
        <time>2018-02-22T20:42:15Z</time>
      </trkpt>
      <trkpt lat="46.23529" lon="6.30725">
        <ele>519</ele>
        <time>2018-02-22T20:42:19Z</time>
      </trkpt>
      <trkpt lat="46.23507" lon="6.3071">
        <ele>519</ele>
        <time>2018-02-22T20:42:23Z</time>
      </trkpt>
      <trkpt lat="46.23456" lon="6.30658">
        <ele>520</ele>
        <time>2018-02-22T20:42:28Z</time>
      </trkpt>
      <trkpt lat="46.23432" lon="6.30642">
        <ele>521</ele>
        <time>2018-02-22T20:42:48Z</time>
      </trkpt>
      <trkpt lat="46.23394" lon="6.30626">
        <ele>521</ele>
        <time>2018-02-22T20:42:54Z</time>
      </trkpt>
      <trkpt lat="46.23368" lon="6.3061">
        <ele>521</ele>
        <time>2018-02-22T20:43:11Z</time>
      </trkpt>
      <trkpt lat="46.23342" lon="6.30584">
        <ele>521</ele>
        <time>2018-02-22T20:43:29Z</time>
      </trkpt>
      <trkpt lat="46.23308" lon="6.30549">
        <ele>520</ele>
        <time>2018-02-22T20:43:42Z</time>
      </trkpt>
      <trkpt lat="46.23302" lon="6.30536">
        <ele>520</ele>
        <time>2018-02-22T20:43:56Z</time>
      </trkpt>
      <trkpt lat="46.23305" lon="6.30516">
        <ele>520</ele>
        <time>2018-02-22T20:44:02Z</time>
      </trkpt>
      <trkpt lat="46.23307" lon="6.30493">
        <ele>520</ele>
        <time>2018-02-22T20:44:12Z</time>
      </trkpt>
      <trkpt lat="46.23297" lon="6.30474">
        <ele>519</ele>
        <time>2018-02-22T20:44:31Z</time>
      </trkpt>
      <trkpt lat="46.23261" lon="6.30421">
        <ele>518</ele>
        <time>2018-02-22T20:44:50Z</time>
      </trkpt>
      <trkpt lat="46.23242" lon="6.30396">
        <ele>516</ele>
        <time>2018-02-22T20:45:02Z</time>
      </trkpt>
      <trkpt lat="46.23224" lon="6.30379">
        <ele>515</ele>
        <time>2018-02-22T20:45:15Z</time>
      </trkpt>
      <trkpt lat="46.23182" lon="6.3035">
        <ele>514</ele>
        <time>2018-02-22T20:45:19Z</time>
      </trkpt>
      <trkpt lat="46.23114" lon="6.30308">
        <ele>513</ele>
        <time>2018-02-22T20:45:35Z</time>
      </trkpt>
      <trkpt lat="46.23095" lon="6.30296">
        <ele>512</ele>
        <time>2018-02-22T20:45:44Z</time>
      </trkpt>
      <trkpt lat="46.23083" lon="6.30286">
        <ele>513</ele>
        <time>2018-02-22T20:46:03Z</time>
      </trkpt>
      <trkpt lat="46.23044" lon="6.30253">
        <ele>514</ele>
        <time>2018-02-22T20:46:07Z</time>
      </trkpt>
      <trkpt lat="46.23004" lon="6.30215">
        <ele>514</ele>
        <time>2018-02-22T20:46:27Z</time>
      </trkpt>
      <trkpt lat="46.22955" lon="6.30181">
        <ele>514</ele>
        <time>2018-02-22T20:46:31Z</time>
      </trkpt>
      <trkpt lat="46.22916" lon="6.3016">
        <ele>513</ele>
        <time>2018-02-22T20:46:48Z</time>
      </trkpt>
      <trkpt lat="46.22874" lon="6.30152">
        <ele>513</ele>
        <time>2018-02-22T20:47:03Z</time>
      </trkpt>
      <trkpt lat="46.22843" lon="6.3015">
        <ele>513</ele>
        <time>2018-02-22T20:47:20Z</time>
      </trkpt>
      <trkpt lat="46.22828" lon="6.30152">
        <ele>513</ele>
        <time>2018-02-22T20:47:39Z</time>
      </trkpt>
      <trkpt lat="46.22808" lon="6.30154">
        <ele>513</ele>
        <time>2018-02-22T20:47:47Z</time>
      </trkpt>
      <trkpt lat="46.22796" lon="6.30153">
        <ele>513</ele>
        <time>2018-02-22T20:48:02Z</time>
      </trkpt>
      <trkpt lat="46.22773" lon="6.30151">
        <ele>514</ele>
        <time>2018-02-22T20:48:08Z</time>
      </trkpt>
      <trkpt lat="46.22737" lon="6.30148">
        <ele>515</ele>
        <time>2018-02-22T20:48:28Z</time>
      </trkpt>
      <trkpt lat="46.22716" lon="6.30143">
        <ele>516</ele>
        <time>2018-02-22T20:48:35Z</time>
      </trkpt>
      <trkpt lat="46.22692" lon="6.30133">
        <ele>515</ele>
        <time>2018-02-22T20:48:49Z</time>
      </trkpt>
      <trkpt lat="46.22681" lon="6.30126">
        <ele>515</ele>
        <time>2018-02-22T20:49:06Z</time>
      </trkpt>
      <trkpt lat="46.22675" lon="6.30117">
        <ele>515</ele>
        <time>2018-02-22T20:49:26Z</time>
      </trkpt>
      <trkpt lat="46.22665" lon="6.30103">
        <ele>515</ele>
        <time>2018-02-22T20:49:36Z</time>
      </trkpt>
      <trkpt lat="46.22656" lon="6.30081">
        <ele>515</ele>
        <time>2018-02-22T20:49:47Z</time>
      </trkpt>
      <trkpt lat="46.22626" lon="6.30001">
        <ele>514</ele>
        <time>2018-02-22T20:50:05Z</time>
      </trkpt>
      <trkpt lat="46.22582" lon="6.29888">
        <ele>513</ele>
        <time>2018-02-22T20:50:10Z</time>
      </trkpt>
      <trkpt lat="46.22529" lon="6.29759">
        <ele>511</ele>
        <time>2018-02-22T20:50:12Z</time>
      </trkpt>
      <trkpt lat="46.22504" lon="6.29713">
        <ele>510</ele>
        <time>2018-02-22T20:50:30Z</time>
      </trkpt>
      <trkpt lat="46.22479" lon="6.29668">
        <ele>510</ele>
        <time>2018-02-22T20:50:38Z</time>
      </trkpt>
      <trkpt lat="46.22447" lon="6.29605">
        <ele>509</ele>
        <time>2018-02-22T20:50:40Z</time>
      </trkpt>
      <trkpt lat="46.2245" lon="6.29588">
        <ele>510</ele>
        <time>2018-02-22T20:50:56Z</time>
      </trkpt>
      <trkpt lat="46.22491" lon="6.29508">
        <ele>510</ele>
        <time>2018-02-22T20:51:04Z</time>
      </trkpt>
      <trkpt lat="46.22507" lon="6.29473">
        <ele>511</ele>
        <time>2018-02-22T20:51:14Z</time>
      </trkpt>
      <trkpt lat="46.22507" lon="6.29463">
        <ele>511</ele>
        <time>2018-02-22T20:51:34Z</time>
      </trkpt>
      <trkpt lat="46.22504" lon="6.29451">
        <ele>511</ele>
        <time>2018-02-22T20:51:46Z</time>
      </trkpt>
      <trkpt lat="46.22487" lon="6.29417">
        <ele>510</ele>
        <time>2018-02-22T20:51:53Z</time>
      </trkpt>
      <trkpt lat="46.22464" lon="6.29364">
        <ele>510</ele>
        <time>2018-02-22T20:52:00Z</time>
      </trkpt>
      <trkpt lat="46.22446" lon="6.29311">
        <ele>510</ele>
        <time>2018-02-22T20:52:15Z</time>
      </trkpt>
      <trkpt lat="46.22374" lon="6.29139">
        <ele>509</ele>
        <time>2018-02-22T20:52:28Z</time>
      </trkpt>
      <trkpt lat="46.22355" lon="6.29081">
        <ele>509</ele>
        <time>2018-02-22T20:52:36Z</time>
      </trkpt>
      <trkpt lat="46.22323" lon="6.28994">
        <ele>508</ele>
        <time>2018-02-22T20:52:46Z</time>
      </trkpt>
      <trkpt lat="46.22295" lon="6.28936">
        <ele>507</ele>
        <time>2018-02-22T20:52:49Z</time>
      </trkpt>
      <trkpt lat="46.22267" lon="6.289">
        <ele>507</ele>
        <time>2018-02-22T20:53:08Z</time>
      </trkpt>
      <trkpt lat="46.22225" lon="6.28857">
        <ele>506</ele>
        <time>2018-02-22T20:53:27Z</time>
      </trkpt>
      <trkpt lat="46.22195" lon="6.28819">
        <ele>506</ele>
        <time>2018-02-22T20:53:40Z</time>
      </trkpt>
      <trkpt lat="46.22178" lon="6.28792">
        <ele>506</ele>
        <time>2018-02-22T20:53:52Z</time>
      </trkpt>
      <trkpt lat="46.22126" lon="6.28699">
        <ele>505</ele>
        <time>2018-02-22T20:54:11Z</time>
      </trkpt>
      <trkpt lat="46.22004" lon="6.28469">
        <ele>504</ele>
        <time>2018-02-22T20:54:19Z</time>
      </trkpt>
      <trkpt lat="46.21942" lon="6.2836">
        <ele>503</ele>
        <time>2018-02-22T20:54:22Z</time>
      </trkpt>
      <trkpt lat="46.21879" lon="6.2825">
        <ele>501</ele>
        <time>2018-02-22T20:54:25Z</time>
      </trkpt>
      <trkpt lat="46.21822" lon="6.28143">
        <ele>499</ele>
        <time>2018-02-22T20:54:31Z</time>
      </trkpt>
      <trkpt lat="46.2177" lon="6.28055">
        <ele>498</ele>
        <time>2018-02-22T20:54:36Z</time>
      </trkpt>
      <trkpt lat="46.21632" lon="6.27824">
        <ele>497</ele>
        <time>2018-02-22T20:54:44Z</time>
      </trkpt>
      <trkpt lat="46.2161" lon="6.2779">
        <ele>496</ele>
        <time>2018-02-22T20:54:49Z</time>
      </trkpt>
      <trkpt lat="46.21584" lon="6.27754">
        <ele>496</ele>
        <time>2018-02-22T20:55:08Z</time>
      </trkpt>
      <trkpt lat="46.21564" lon="6.27727">
        <ele>496</ele>
        <time>2018-02-22T20:55:25Z</time>
      </trkpt>
      <trkpt lat="46.2155" lon="6.27701">
        <ele>495</ele>
        <time>2018-02-22T20:55:36Z</time>
      </trkpt>
      <trkpt lat="46.21536" lon="6.27661">
        <ele>495</ele>
        <time>2018-02-22T20:55:49Z</time>
      </trkpt>
      <trkpt lat="46.21531" lon="6.27637">
        <ele>494</ele>
        <time>2018-02-22T20:56:08Z</time>
      </trkpt>
      <trkpt lat="46.21502" lon="6.27516">
        <ele>494</ele>
        <time>2018-02-22T20:56:26Z</time>
      </trkpt>
      <trkpt lat="46.21491" lon="6.27461">
        <ele>494</ele>
        <time>2018-02-22T20:56:45Z</time>
      </trkpt>
      <trkpt lat="46.21482" lon="6.27406">
        <ele>493</ele>
        <time>2018-02-22T20:56:58Z</time>
      </trkpt>
      <trkpt lat="46.21472" lon="6.27326">
        <ele>489</ele>
        <time>2018-02-22T20:57:14Z</time>
      </trkpt>
      <trkpt lat="46.21417" lon="6.27052">
        <ele>483</ele>
        <time>2018-02-22T20:57:22Z</time>
      </trkpt>
      <trkpt lat="46.2137" lon="6.2695">
        <ele>477</ele>
        <time>2018-02-22T20:57:27Z</time>
      </trkpt>
      <trkpt lat="46.21358" lon="6.26918">
        <ele>474</ele>
        <time>2018-02-22T20:57:42Z</time>
      </trkpt>
      <trkpt lat="46.2135" lon="6.26889">
        <ele>472</ele>
        <time>2018-02-22T20:57:44Z</time>
      </trkpt>
      <trkpt lat="46.21316" lon="6.26735">
        <ele>470</ele>
        <time>2018-02-22T20:57:55Z</time>
      </trkpt>
      <trkpt lat="46.21274" lon="6.26541">
        <ele>472</ele>
        <time>2018-02-22T20:58:10Z</time>
      </trkpt>
      <trkpt lat="46.2124" lon="6.26377">
        <ele>477</ele>
        <time>2018-02-22T20:58:16Z</time>
      </trkpt>
      <trkpt lat="46.21207" lon="6.26238">
        <ele>482</ele>
        <time>2018-02-22T20:58:34Z</time>
      </trkpt>
      <trkpt lat="46.21192" lon="6.26187">
        <ele>484</ele>
        <time>2018-02-22T20:58:43Z</time>
      </trkpt>
      <trkpt lat="46.21163" lon="6.26109">
        <ele>483</ele>
        <time>2018-02-22T20:58:50Z</time>
      </trkpt>
      <trkpt lat="46.21112" lon="6.2598">
        <ele>481</ele>
        <time>2018-02-22T20:59:10Z</time>
      </trkpt>
      <trkpt lat="46.21087" lon="6.25911">
        <ele>477</ele>
        <time>2018-02-22T20:59:21Z</time>
      </trkpt>
      <trkpt lat="46.21053" lon="6.25808">
        <ele>474</ele>
        <time>2018-02-22T20:59:27Z</time>
      </trkpt>
      <trkpt lat="46.21033" lon="6.2574">
        <ele>472</ele>
        <time>2018-02-22T20:59:43Z</time>
      </trkpt>
      <trkpt lat="46.21021" lon="6.25678">
        <ele>471</ele>
        <time>2018-02-22T20:59:45Z</time>
      </trkpt>
      <trkpt lat="46.20998" lon="6.256">
        <ele>470</ele>
        <time>2018-02-22T20:59:55Z</time>
      </trkpt>
      <trkpt lat="46.20991" lon="6.25579">
        <ele>469</ele>
        <time>2018-02-22T21:00:05Z</time>
      </trkpt>
      <trkpt lat="46.20977" lon="6.25557">
        <ele>468</ele>
        <time>2018-02-22T21:00:12Z</time>
      </trkpt>
      <trkpt lat="46.2094" lon="6.25508">
        <ele>466</ele>
        <time>2018-02-22T21:00:25Z</time>
      </trkpt>
      <trkpt lat="46.20916" lon="6.25474">
        <ele>465</ele>
        <time>2018-02-22T21:00:40Z</time>
      </trkpt>
      <trkpt lat="46.20912" lon="6.25462">
        <ele>465</ele>
        <time>2018-02-22T21:00:45Z</time>
      </trkpt>
      <trkpt lat="46.20912" lon="6.2545">
        <ele>465</ele>
        <time>2018-02-22T21:00:54Z</time>
      </trkpt>
      <trkpt lat="46.2092" lon="6.25427">
        <ele>465</ele>
        <time>2018-02-22T21:01:10Z</time>
      </trkpt>
      <trkpt lat="46.20922" lon="6.25416">
        <ele>464</ele>
        <time>2018-02-22T21:01:18Z</time>
      </trkpt>
      <trkpt lat="46.20919" lon="6.2541">
        <ele>463</ele>
        <time>2018-02-22T21:01:20Z</time>
      </trkpt>
      <trkpt lat="46.20859" lon="6.25336">
        <ele>461</ele>
        <time>2018-02-22T21:01:35Z</time>
      </trkpt>
      <trkpt lat="46.20837" lon="6.25308">
        <ele>458</ele>
        <time>2018-02-22T21:01:52Z</time>
      </trkpt>
      <trkpt lat="46.20791" lon="6.25261">
        <ele>455</ele>
        <time>2018-02-22T21:02:06Z</time>
      </trkpt>
      <trkpt lat="46.20751" lon="6.25213">
        <ele>453</ele>
        <time>2018-02-22T21:02:22Z</time>
      </trkpt>
      <trkpt lat="46.20727" lon="6.25182">
        <ele>452</ele>
        <time>2018-02-22T21:02:26Z</time>
      </trkpt>
      <trkpt lat="46.20702" lon="6.25142">
        <ele>452</ele>
        <time>2018-02-22T21:02:38Z</time>
      </trkpt>
      <trkpt lat="46.2068" lon="6.25099">
        <ele>451</ele>
        <time>2018-02-22T21:02:50Z</time>
      </trkpt>
      <trkpt lat="46.2064" lon="6.25012">
        <ele>450</ele>
        <time>2018-02-22T21:03:00Z</time>
      </trkpt>
      <trkpt lat="46.20605" lon="6.24956">
        <ele>449</ele>
        <time>2018-02-22T21:03:03Z</time>
      </trkpt>
      <trkpt lat="46.2059" lon="6.24938">
        <ele>448</ele>
        <time>2018-02-22T21:03:09Z</time>
      </trkpt>
      <trkpt lat="46.20581" lon="6.24935">
        <ele>448</ele>
        <time>2018-02-22T21:03:12Z</time>
      </trkpt>
      <trkpt lat="46.2057" lon="6.2494">
        <ele>448</ele>
        <time>2018-02-22T21:03:21Z</time>
      </trkpt>
      <trkpt lat="46.20538" lon="6.24966">
        <ele>447</ele>
        <time>2018-02-22T21:03:23Z</time>
      </trkpt>
      <trkpt lat="46.2053" lon="6.24969">
        <ele>447</ele>
        <time>2018-02-22T21:03:32Z</time>
      </trkpt>
      <trkpt lat="46.20509" lon="6.24964">
        <ele>446</ele>
        <time>2018-02-22T21:03:52Z</time>
      </trkpt>
      <trkpt lat="46.20474" lon="6.24952">
        <ele>445</ele>
        <time>2018-02-22T21:04:04Z</time>
      </trkpt>
      <trkpt lat="46.2046" lon="6.2495">
        <ele>444</ele>
        <time>2018-02-22T21:04:13Z</time>
      </trkpt>
      <trkpt lat="46.20428" lon="6.2495">
        <ele>444</ele>
        <time>2018-02-22T21:04:18Z</time>
      </trkpt>
      <trkpt lat="46.20411" lon="6.24958">
        <ele>444</ele>
        <time>2018-02-22T21:04:20Z</time>
      </trkpt>
      <trkpt lat="46.20398" lon="6.24966">
        <ele>444</ele>
        <time>2018-02-22T21:04:25Z</time>
      </trkpt>
      <trkpt lat="46.20384" lon="6.24976">
        <ele>444</ele>
        <time>2018-02-22T21:04:32Z</time>
      </trkpt>
      <trkpt lat="46.20372" lon="6.24981">
        <ele>444</ele>
        <time>2018-02-22T21:04:43Z</time>
      </trkpt>
      <trkpt lat="46.20363" lon="6.24984">
        <ele>444</ele>
        <time>2018-02-22T21:04:53Z</time>
      </trkpt>
      <trkpt lat="46.20333" lon="6.24988">
        <ele>444</ele>
        <time>2018-02-22T21:05:00Z</time>
      </trkpt>
      <trkpt lat="46.20328" lon="6.24933">
        <ele>444</ele>
        <time>2018-02-22T21:05:11Z</time>
      </trkpt>
      <trkpt lat="46.20326" lon="6.24889">
        <ele>443</ele>
        <time>2018-02-22T21:05:15Z</time>
      </trkpt>
      <trkpt lat="46.20317" lon="6.24853">
        <ele>443</ele>
        <time>2018-02-22T21:05:19Z</time>
      </trkpt>
      <trkpt lat="46.2031" lon="6.24829">
        <ele>442</ele>
        <time>2018-02-22T21:05:25Z</time>
      </trkpt>
      <trkpt lat="46.20309" lon="6.2482">
        <ele>442</ele>
        <time>2018-02-22T21:05:40Z</time>
      </trkpt>
      <trkpt lat="46.20323" lon="6.24758">
        <ele>442</ele>
        <time>2018-02-22T21:05:59Z</time>
      </trkpt>
      <trkpt lat="46.20332" lon="6.24732">
        <ele>442</ele>
        <time>2018-02-22T21:06:05Z</time>
      </trkpt>
      <trkpt lat="46.20346" lon="6.24687">
        <ele>441</ele>
        <time>2018-02-22T21:06:21Z</time>
      </trkpt>
      <trkpt lat="46.20365" lon="6.24634">
        <ele>441</ele>
        <time>2018-02-22T21:06:31Z</time>
      </trkpt>
      <trkpt lat="46.20375" lon="6.24601">
        <ele>441</ele>
        <time>2018-02-22T21:06:36Z</time>
      </trkpt>
      <trkpt lat="46.2038" lon="6.24567">
        <ele>441</ele>
        <time>2018-02-22T21:06:46Z</time>
      </trkpt>
      <trkpt lat="46.20373" lon="6.24515">
        <ele>441</ele>
        <time>2018-02-22T21:06:48Z</time>
      </trkpt>
      <trkpt lat="46.20368" lon="6.24484">
        <ele>441</ele>
        <time>2018-02-22T21:07:05Z</time>
      </trkpt>
      <trkpt lat="46.20369" lon="6.24469">
        <ele>442</ele>
        <time>2018-02-22T21:07:20Z</time>
      </trkpt>
      <trkpt lat="46.2037" lon="6.24462">
        <ele>442</ele>
        <time>2018-02-22T21:07:40Z</time>
      </trkpt>
      <trkpt lat="46.20366" lon="6.24458">
        <ele>442</ele>
        <time>2018-02-22T21:07:52Z</time>
      </trkpt>
      <trkpt lat="46.20356" lon="6.24443">
        <ele>442</ele>
        <time>2018-02-22T21:08:10Z</time>
      </trkpt>
      <trkpt lat="46.20335" lon="6.24375">
        <ele>441</ele>
        <time>2018-02-22T21:08:30Z</time>
      </trkpt>
      <trkpt lat="46.20327" lon="6.24349">
        <ele>440</ele>
        <time>2018-02-22T21:08:43Z</time>
      </trkpt>
      <trkpt lat="46.20314" lon="6.24313">
        <ele>439</ele>
        <time>2018-02-22T21:09:03Z</time>
      </trkpt>
      <trkpt lat="46.20306" lon="6.24301">
        <ele>439</ele>
        <time>2018-02-22T21:09:21Z</time>
      </trkpt>
      <trkpt lat="46.20299" lon="6.24294">
        <ele>439</ele>
        <time>2018-02-22T21:09:30Z</time>
      </trkpt>
      <trkpt lat="46.2029" lon="6.24288">
        <ele>439</ele>
        <time>2018-02-22T21:09:39Z</time>
      </trkpt>
      <trkpt lat="46.20263" lon="6.24276">
        <ele>439</ele>
        <time>2018-02-22T21:09:47Z</time>
      </trkpt>
      <trkpt lat="46.20226" lon="6.2426">
        <ele>439</ele>
        <time>2018-02-22T21:10:02Z</time>
      </trkpt>
      <trkpt lat="46.20217" lon="6.24252">
        <ele>439</ele>
        <time>2018-02-22T21:10:19Z</time>
      </trkpt>
      <trkpt lat="46.20145" lon="6.24124">
        <ele>439</ele>
        <time>2018-02-22T21:10:32Z</time>
      </trkpt>
      <trkpt lat="46.20108" lon="6.24054">
        <ele>438</ele>
        <time>2018-02-22T21:10:38Z</time>
      </trkpt>
      <trkpt lat="46.20006" lon="6.23877">
        <ele>437</ele>
        <time>2018-02-22T21:10:48Z</time>
      </trkpt>
      <trkpt lat="46.19953" lon="6.23786">
        <ele>436</ele>
        <time>2018-02-22T21:10:59Z</time>
      </trkpt>
      <trkpt lat="46.19926" lon="6.23724">
        <ele>436</ele>
        <time>2018-02-22T21:11:17Z</time>
      </trkpt>
      <trkpt lat="46.19921" lon="6.23715">
        <ele>436</ele>
        <time>2018-02-22T21:11:35Z</time>
      </trkpt>
      <trkpt lat="46.19921" lon="6.23707">
        <ele>436</ele>
        <time>2018-02-22T21:11:46Z</time>
      </trkpt>
      <trkpt lat="46.19898" lon="6.2367">
        <ele>436</ele>
        <time>2018-02-22T21:12:00Z</time>
      </trkpt>
      <trkpt lat="46.19832" lon="6.23558">
        <ele>435</ele>
        <time>2018-02-22T21:12:02Z</time>
      </trkpt>
      <trkpt lat="46.19602" lon="6.23147">
        <ele>434</ele>
        <time>2018-02-22T21:12:21Z</time>
      </trkpt>
      <trkpt lat="46.19596" lon="6.23134">
        <ele>434</ele>
        <time>2018-02-22T21:12:36Z</time>
      </trkpt>
      <trkpt lat="46.19596" lon="6.23132">
        <ele>434</ele>
        <time>2018-02-22T21:12:46Z</time>
      </trkpt>
      <trkpt lat="46.19595" lon="6.23128">
        <ele>434</ele>
        <time>2018-02-22T21:13:05Z</time>
      </trkpt>
      <trkpt lat="46.19584" lon="6.23113">
        <ele>434</ele>
        <time>2018-02-22T21:13:13Z</time>
      </trkpt>
      <trkpt lat="46.19556" lon="6.23058">
        <ele>433</ele>
        <time>2018-02-22T21:13:29Z</time>
      </trkpt>
      <trkpt lat="46.19508" lon="6.2296">
        <ele>432</ele>
        <time>2018-02-22T21:13:31Z</time>
      </trkpt>
      <trkpt lat="46.19488" lon="6.22932">
        <ele>432</ele>
        <time>2018-02-22T21:13:34Z</time>
      </trkpt>
      <trkpt lat="46.19474" lon="6.22918">
        <ele>432</ele>
        <time>2018-02-22T21:13:41Z</time>
      </trkpt>
      <trkpt lat="46.19458" lon="6.22906">
        <ele>432</ele>
        <time>2018-02-22T21:13:54Z</time>
      </trkpt>
      <trkpt lat="46.19414" lon="6.2288">
        <ele>432</ele>
        <time>2018-02-22T21:13:57Z</time>
      </trkpt>
      <trkpt lat="46.19384" lon="6.22861">
        <ele>432</ele>
        <time>2018-02-22T21:14:09Z</time>
      </trkpt>
      <trkpt lat="46.19373" lon="6.22847">
        <ele>433</ele>
        <time>2018-02-22T21:14:21Z</time>
      </trkpt>
      <trkpt lat="46.19372" lon="6.22845">
        <ele>433</ele>
        <time>2018-02-22T21:14:24Z</time>
      </trkpt>
      <trkpt lat="46.19368" lon="6.22841">
        <ele>432</ele>
        <time>2018-02-22T21:14:26Z</time>
      </trkpt>
      <trkpt lat="46.19364" lon="6.2284">
        <ele>432</ele>
        <time>2018-02-22T21:14:37Z</time>
      </trkpt>
      <trkpt lat="46.1936" lon="6.22843">
        <ele>433</ele>
        <time>2018-02-22T21:14:50Z</time>
      </trkpt>
      <trkpt lat="46.19358" lon="6.22855">
        <ele>433</ele>
        <time>2018-02-22T21:14:55Z</time>
      </trkpt>
      <trkpt lat="46.19361" lon="6.22859">
        <ele>433</ele>
        <time>2018-02-22T21:15:14Z</time>
      </trkpt>
      <trkpt lat="46.19365" lon="6.22862">
        <ele>433</ele>
        <time>2018-02-22T21:15:19Z</time>
      </trkpt>
      <trkpt lat="46.19366" lon="6.22862">
        <ele>433</ele>
        <time>2018-02-22T21:15:21Z</time>
      </trkpt>
      <trkpt lat="46.19366" lon="6.22876">
        <ele>433</ele>
        <time>2018-02-22T21:15:32Z</time>
      </trkpt>
      <trkpt lat="46.19368" lon="6.229">
        <ele>434</ele>
        <time>2018-02-22T21:15:49Z</time>
      </trkpt>
      <trkpt lat="46.19393" lon="6.23">
        <ele>434</ele>
        <time>2018-02-22T21:16:00Z</time>
      </trkpt>
      <trkpt lat="46.19416" lon="6.23088">
        <ele>434</ele>
        <time>2018-02-22T21:16:12Z</time>
      </trkpt>
    </trkseg>
  </trk>
</gpx>